| time (UTC) | temp C | wind direction | speed KPH | gust KPH | rain 1hr cm | rain 24hr cm | rain mn cm | humidity % | barometer mb |
| 20260510172314 | 18 | 96 | 0.0 | 9.7 | 0.00 | 0.00 | 0.00 | 50 | 1009.8 |
| 20260510172255 | 18 | 119 | 0.0 | 9.7 | 0.00 | 0.00 | 0.00 | 50 | 1009.7 |
| 20260510171931 | 18 | 66 | 1.6 | 9.7 | 0.00 | 0.00 | 0.00 | 50 | 1009.7 |
| 20260510171832 | 18 | 5 | 3.2 | 9.7 | 0.00 | 0.00 | 0.00 | 49 | 1009.7 |
| 20260510171732 | 18 | 57 | 4.8 | 9.7 | 0.00 | 0.00 | 0.00 | 49 | 1009.6 |
| 20260510171632 | 18 | 81 | 1.6 | 6.4 | 0.00 | 0.00 | 0.00 | 49 | 1009.9 |
| 20260510171545 | 18 | 57 | 1.6 | 6.4 | 0.00 | 0.00 | 0.00 | 49 | 1009.6 |
| 20260510171431 | 18 | 72 | 1.6 | 6.4 | 0.00 | 0.00 | 0.00 | 49 | 1009.7 |
| 20260510171331 | 18 | 89 | 1.6 | 6.4 | 0.00 | 0.00 | 0.00 | 49 | 1009.8 |
| 20260510171231 | 18 | 61 | 4.8 | 6.4 | 0.00 | 0.00 | 0.00 | 49 | 1009.7 |
| 20260510171131 | 18 | 111 | 1.6 | 4.8 | 0.00 | 0.00 | 0.00 | 49 | 1009.7 |
| 20260510171031 | 18 | 59 | 3.2 | 4.8 | 0.00 | 0.00 | 0.00 | 49 | 1009.8 |
| 20260510171007 | 18 | 68 | 3.2 | 4.8 | 0.00 | 0.00 | 0.00 | 48 | 1009.8 |
| 20260510170951 | 18 | 98 | 1.6 | 4.8 | 0.00 | 0.00 | 0.00 | 48 | 1009.8 |
| 20260510170631 | 18 | 68 | 3.2 | 4.8 | 0.00 | 0.00 | 0.00 | 49 | 1009.8 |
| 20260510170531 | 18 | 90 | 1.6 | 4.8 | 0.00 | 0.00 | 0.00 | 49 | 1009.9 |
| 20260510170431 | 18 | 86 | 3.2 | 4.8 | 0.00 | 0.00 | 0.00 | 48 | 1009.9 |
| 20260510170331 | 18 | 64 | 3.2 | 6.4 | 0.00 | 0.00 | 0.00 | 49 | 1009.9 |
| 20260510170230 | 18 | 133 | 0.0 | 6.4 | 0.00 | 0.00 | 0.00 | 48 | 1009.9 |
| 20260510170131 | 18 | 178 | 0.0 | 6.4 | 0.00 | 0.00 | 0.00 | 48 | 1009.7 |
| 20260510170037 | 18 | 178 | 0.0 | 6.4 | 0.00 | 0.00 | 0.00 | 48 | 1009.9 |
| 20260510165932 | 18 | 135 | 1.6 | 6.4 | 0.00 | 0.00 | 0.00 | 48 | 1009.9 |
| 20260510165831 | 18 | 148 | 0.0 | 6.4 | 0.00 | 0.00 | 0.00 | 48 | 1010.0 |
| 20260510165732 | 18 | 134 | 0.0 | 6.4 | 0.00 | 0.00 | 0.00 | 47 | 1010.1 |
| 20260510165632 | 18 | 90 | 1.6 | 6.4 | 0.00 | 0.00 | 0.00 | 47 | 1009.9 |
| 20260510165531 | 18 | 120 | 1.6 | 6.4 | 0.00 | 0.00 | 0.00 | 47 | 1009.8 |
| 20260510165432 | 18 | 81 | 3.2 | 6.4 | 0.00 | 0.00 | 0.00 | 48 | 1009.9 |
| 20260510165407 | 18 | 72 | 1.6 | 3.2 | 0.00 | 0.00 | 0.00 | 48 | 1010.0 |
| 20260510165352 | 18 | 73 | 1.6 | 3.2 | 0.00 | 0.00 | 0.00 | 48 | 1010.0 |
| 20260510165030 | 18 | 160 | 0.0 | 0.0 | 0.00 | 0.00 | 0.00 | 48 | 1010.1 |
| 20260510164533 | 19 | 119 | 1.6 | 4.8 | 0.00 | 0.00 | 0.00 | 48 | 1010.1 |
| 20260510164514 | 19 | 116 | 0.0 | 4.8 | 0.00 | 0.00 | 0.00 | 48 | 1010.1 |
| 20260510164413 | 19 | 109 | 1.6 | 4.8 | 0.00 | 0.00 | 0.00 | 47 | 1010.1 |
| 20260510164334 | 19 | 166 | 0.0 | 4.8 | 0.00 | 0.00 | 0.00 | 47 | 1010.2 |
| 20260510164327 | 19 | 122 | 1.6 | 4.8 | 0.00 | 0.00 | 0.00 | 47 | 1009.9 |
| 20260510164311 | 19 | 102 | 1.6 | 4.8 | 0.00 | 0.00 | 0.00 | 47 | 1010.0 |
| 20260510164254 | 19 | 172 | 0.0 | 4.8 | 0.00 | 0.00 | 0.00 | 47 | 1010.2 |
| 20260510164013 | 19 | 164 | 0.0 | 4.8 | 0.00 | 0.00 | 0.00 | 47 | 1010.1 |
| 20260510163914 | 19 | 177 | 0.0 | 4.8 | 0.00 | 0.00 | 0.00 | 46 | 1010.1 |
| 20260510163813 | 19 | 39 | 1.6 | 4.8 | 0.00 | 0.00 | 0.00 | 46 | 1010.1 |
| 20260510163712 | 19 | 37 | 4.8 | 4.8 | 0.00 | 0.00 | 0.00 | 46 | 1010.2 |
| 20260510163657 | 19 | 63 | 3.2 | 4.8 | 0.00 | 0.00 | 0.00 | 46 | 1010.0 |
| 20260510163641 | 19 | 148 | 0.0 | 3.2 | 0.00 | 0.00 | 0.00 | 46 | 1010.0 |
| 20260510163634 | 19 | 148 | 0.0 | 3.2 | 0.00 | 0.00 | 0.00 | 47 | 1010.1 |
| 20260510163313 | 19 | 148 | 0.0 | 3.2 | 0.00 | 0.00 | 0.00 | 47 | 1010.2 |
| 20260510163214 | 19 | 145 | 1.6 | 3.2 | 0.00 | 0.00 | 0.00 | 46 | 1010.1 |
| 20260510163149 | 19 | 82 | 3.2 | 3.2 | 0.00 | 0.00 | 0.00 | 47 | 1010.1 |
| 20260510163140 | 19 | 166 | 0.0 | 3.2 | 0.00 | 0.00 | 0.00 | 46 | 1010.5 |
| 20260510163123 | 19 | 166 | 0.0 | 3.2 | 0.00 | 0.00 | 0.00 | 46 | 1010.5 |
| 20260510163115 | 19 | 164 | 0.0 | 3.2 | 0.00 | 0.00 | 0.00 | 47 | 1010.2 |
| 20260510163059 | 19 | 138 | 0.0 | 3.2 | 0.00 | 0.00 | 0.00 | 47 | 1010.1 |
| 20260510162824 | 19 | 73 | 1.6 | 3.2 | 0.00 | 0.00 | 0.00 | 46 | 1010.1 |
| 20260510162809 | 19 | 128 | 1.6 | 3.2 | 0.00 | 0.00 | 0.00 | 47 | 1010.1 |
| 20260510162542 | 19 | 58 | 1.6 | 3.2 | 0.00 | 0.00 | 0.00 | 48 | 1010.4 |
| 20260510162527 | 19 | 130 | 3.2 | 3.2 | 0.00 | 0.00 | 0.00 | 46 | 1010.2 |
| 20260510162511 | 19 | 130 | 0.0 | 3.2 | 0.00 | 0.00 | 0.00 | 46 | 1010.6 |
| 20260510162455 | 19 | 124 | 0.0 | 4.8 | 0.00 | 0.00 | 0.00 | 47 | 1010.4 |
| 20260510162440 | 19 | 109 | 1.6 | 4.8 | 0.00 | 0.00 | 0.00 | 46 | 1010.1 |
| 20260510162422 | 19 | 145 | 0.0 | 4.8 | 0.00 | 0.00 | 0.00 | 47 | 1010.1 |
| 20260510161934 | 19 | 140 | 0.0 | 4.8 | 0.00 | 0.00 | 0.00 | 46 | 1010.4 |
| 20260510161917 | 19 | 123 | 0.0 | 4.8 | 0.00 | 0.00 | 0.00 | 46 | 1010.4 |
| 20260510161642 | 19 | 163 | 0.0 | 4.8 | 0.00 | 0.00 | 0.00 | 46 | 1010.5 |
| 20260510161634 | 19 | 73 | 1.6 | 4.8 | 0.00 | 0.00 | 0.00 | 46 | 1010.5 |
| 20260510161312 | 19 | 56 | 3.2 | 4.8 | 0.00 | 0.00 | 0.00 | 47 | 1010.5 |
| 20260510161213 | 19 | 89 | 1.6 | 3.2 | 0.00 | 0.00 | 0.00 | 48 | 1010.2 |
| 20260510161113 | 19 | 174 | 0.0 | 3.2 | 0.00 | 0.00 | 0.00 | 48 | 1010.2 |
| 20260510161033 | 19 | 181 | 0.0 | 3.2 | 0.00 | 0.00 | 0.00 | 47 | 1010.2 |
| 20260510161013 | 19 | 183 | 0.0 | 3.2 | 0.00 | 0.00 | 0.00 | 47 | 1010.6 |
| 20260510160912 | 19 | 158 | 0.0 | 3.2 | 0.00 | 0.00 | 0.00 | 46 | 1010.2 |
| 20260510160813 | 19 | 105 | 3.2 | 4.8 | 0.00 | 0.00 | 0.00 | 47 | 1010.5 |
| 20260510160713 | 19 | 66 | 1.6 | 4.8 | 0.00 | 0.00 | 0.00 | 47 | 1010.5 |
| 20260510160613 | 19 | 163 | 0.0 | 4.8 | 0.00 | 0.00 | 0.00 | 47 | 1010.5 |
| 20260510160533 | 19 | 99 | 0.0 | 4.8 | 0.00 | 0.00 | 0.00 | 46 | 1010.5 |
| 20260510160513 | 19 | 99 | 0.0 | 4.8 | 0.00 | 0.00 | 0.00 | 46 | 1010.6 |
| 20260510160414 | 19 | 139 | 0.0 | 4.8 | 0.00 | 0.00 | 0.00 | 46 | 1010.2 |
| 20260510160322 | 20 | 176 | 0.0 | 6.4 | 0.00 | 0.00 | 0.00 | 45 | 1010.9 |
| 20260510160315 | 19 | 140 | 0.0 | 4.8 | 0.00 | 0.00 | 0.00 | 45 | 1010.6 |
| 20260510160304 | 20 | 171 | 0.0 | 4.8 | 0.00 | 0.00 | 0.00 | 45 | 1010.8 |
| 20260510160255 | 19 | 150 | 0.0 | 4.8 | 0.00 | 0.00 | 0.00 | 46 | 1010.4 |
| 20260510160240 | 19 | 128 | 1.6 | 4.8 | 0.00 | 0.00 | 0.00 | 46 | 1010.6 |
| 20260510160223 | 19 | 118 | 1.6 | 4.8 | 0.00 | 0.00 | 0.00 | 47 | 1010.6 |
| 20260510160216 | 19 | 114 | 1.6 | 4.8 | 0.00 | 0.00 | 0.00 | 47 | 1010.4 |
| 20260510160200 | 19 | 123 | 0.0 | 4.8 | 0.00 | 0.00 | 0.00 | 48 | 1010.6 |
| 20260510155924 | 19 | 162 | 0.0 | 4.8 | 0.00 | 0.00 | 0.00 | 47 | 1010.6 |
| 20260510155650 | 19 | 73 | 1.6 | 4.8 | 0.00 | 0.00 | 0.00 | 46 | 1010.6 |
| 20260510155642 | 19 | 56 | 3.2 | 4.8 | 0.00 | 0.00 | 0.00 | 46 | 1010.7 |
| 20260510155418 | 19 | 169 | 0.0 | 3.2 | 0.00 | 0.00 | 0.00 | 46 | 1010.7 |
| 20260510155401 | 19 | 149 | 0.0 | 3.2 | 0.00 | 0.00 | 0.00 | 46 | 1010.9 |
| 20260510155346 | 20 | 66 | 3.2 | 4.8 | 0.00 | 0.00 | 0.00 | 46 | 1010.9 |
| 20260510155330 | 20 | 169 | 0.0 | 4.8 | 0.00 | 0.00 | 0.00 | 46 | 1010.8 |
| 20260510155101 | 20 | 186 | 0.0 | 4.8 | 0.00 | 0.00 | 0.00 | 46 | 1010.7 |
| 20260510155044 | 20 | 184 | 0.0 | 4.8 | 0.00 | 0.00 | 0.00 | 45 | 1010.5 |
| 20260510154806 | 20 | 186 | 0.0 | 4.8 | 0.00 | 0.00 | 0.00 | 45 | 1010.7 |
| 20260510154751 | 20 | 142 | 0.0 | 6.4 | 0.00 | 0.00 | 0.00 | 45 | 1010.9 |
| 20260510154514 | 20 | 176 | 0.0 | 6.4 | 0.00 | 0.00 | 0.00 | 45 | 1010.5 |
| 20260510154449 | 19 | 178 | 0.0 | 6.4 | 0.00 | 0.00 | 0.00 | 46 | 1010.7 |
| 20260510154435 | 19 | 202 | 1.6 | 6.4 | 0.00 | 0.00 | 0.00 | 45 | 1010.7 |
| 20260510154113 | 19 | 130 | 0.0 | 6.4 | 0.00 | 0.00 | 0.00 | 45 | 1010.7 |
| 20260510154033 | 19 | 131 | 1.6 | 6.4 | 0.00 | 0.00 | 0.00 | 44 | 1010.7 |
| 20260510154014 | 20 | 61 | 3.2 | 6.4 | 0.00 | 0.00 | 0.00 | 44 | 1010.7 |
| 20260510153914 | 20 | 124 | 1.6 | 6.4 | 0.00 | 0.00 | 0.00 | 45 | 1010.9 |
| 20260510153813 | 20 | 177 | 0.0 | 6.4 | 0.00 | 0.00 | 0.00 | 46 | 1010.6 |
| 20260510153714 | 19 | 201 | 0.0 | 6.4 | 0.00 | 0.00 | 0.00 | 45 | 1010.7 |
| 20260510153629 | 20 | 190 | 0.0 | 6.4 | 0.00 | 0.00 | 0.00 | 45 | 1010.9 |
| 20260510153624 | 19 | 190 | 1.6 | 6.4 | 0.00 | 0.00 | 0.00 | 44 | 1010.7 |
| 20260510153609 | 19 | 169 | 0.0 | 6.4 | 0.00 | 0.00 | 0.00 | 45 | 1010.7 |
| 20260510153602 | 19 | 187 | 0.0 | 6.4 | 0.00 | 0.00 | 0.00 | 45 | 1010.7 |
| 20260510153546 | 19 | 75 | 1.6 | 6.4 | 0.00 | 0.00 | 0.00 | 45 | 1010.8 |
| 20260510153531 | 20 | 139 | 0.0 | 6.4 | 0.00 | 0.00 | 0.00 | 44 | 1010.9 |
| 20260510153515 | 20 | 158 | 0.0 | 6.4 | 0.00 | 0.00 | 0.00 | 45 | 1010.7 |
| 20260510153013 | 20 | 187 | 0.0 | 6.4 | 0.00 | 0.00 | 0.00 | 44 | 1010.9 |
| 20260510152918 | 20 | 221 | 3.2 | 6.4 | 0.00 | 0.00 | 0.00 | 44 | 1011.0 |
| 20260510152813 | 20 | 204 | 4.8 | 6.4 | 0.00 | 0.00 | 0.00 | 44 | 1010.9 |
| 20260510152714 | 20 | 182 | 0.0 | 3.2 | 0.00 | 0.00 | 0.00 | 48 | 1010.9 |
| 20260510152648 | 20 | 196 | 0.0 | 3.2 | 0.00 | 0.00 | 0.00 | 45 | 1011.1 |
| 20260510152633 | 20 | 116 | 0.0 | 3.2 | 0.00 | 0.00 | 0.00 | 45 | 1011.1 |
| 20260510152625 | 20 | 125 | 0.0 | 3.2 | 0.00 | 0.00 | 0.00 | 45 | 1010.9 |
| 20260510152608 | 20 | 172 | 0.0 | 4.8 | 0.00 | 0.00 | 0.00 | 45 | 1010.9 |
| 20260510152332 | 19 | 152 | 0.0 | 4.8 | 0.00 | 0.00 | 0.00 | 45 | 1011.0 |
| 20260510152033 | 19 | 125 | 0.0 | 4.8 | 0.00 | 0.00 | 0.00 | 45 | 1011.1 |
| 20260510152013 | 19 | 185 | 0.0 | 4.8 | 0.00 | 0.00 | 0.00 | 45 | 1010.9 |
| 20260510151948 | 19 | 210 | 1.6 | 6.4 | 0.00 | 0.00 | 0.00 | 46 | 1011.0 |
| 20260510151933 | 19 | 77 | 1.6 | 6.4 | 0.00 | 0.00 | 0.00 | 46 | 1010.9 |
| 20260510151613 | 19 | 107 | 0.0 | 6.4 | 0.00 | 0.00 | 0.00 | 47 | 1010.9 |
| 20260510151534 | 19 | 131 | 1.6 | 6.4 | 0.00 | 0.00 | 0.00 | 46 | 1010.9 |
| 20260510151513 | 19 | 54 | 4.8 | 6.4 | 0.00 | 0.00 | 0.00 | 46 | 1011.2 |
| 20260510151502 | 20 | 61 | 3.2 | 9.7 | 0.00 | 0.00 | 0.00 | 46 | 1011.3 |
| 20260510151453 | 19 | 92 | 3.2 | 6.4 | 0.00 | 0.00 | 0.00 | 47 | 1011.1 |
| 20260510151436 | 19 | 144 | 0.0 | 6.4 | 0.00 | 0.00 | 0.00 | 47 | 1011.2 |
| 20260510151420 | 19 | 135 | 1.6 | 6.4 | 0.00 | 0.00 | 0.00 | 46 | 1011.2 |
| 20260510151135 | 19 | 129 | 1.6 | 6.4 | 0.00 | 0.00 | 0.00 | 46 | 1011.2 |
| 20260510150859 | 19 | 146 | 0.0 | 9.7 | 0.00 | 0.00 | 0.00 | 46 | 1011.1 |
| 20260510150843 | 19 | 179 | 0.0 | 9.7 | 0.00 | 0.00 | 0.00 | 46 | 1011.3 |
| 20260510150827 | 19 | 174 | 0.0 | 9.7 | 0.00 | 0.00 | 0.00 | 46 | 1011.2 |
| 20260510150813 | 19 | 176 | 0.0 | 9.7 | 0.00 | 0.00 | 0.00 | 46 | 1011.2 |
| 20260510150805 | 19 | 172 | 0.0 | 9.7 | 0.00 | 0.00 | 0.00 | 46 | 1011.1 |
| 20260510150750 | 19 | 137 | 0.0 | 9.7 | 0.00 | 0.00 | 0.00 | 46 | 1011.3 |
| 20260510150254 | 20 | 72 | 1.6 | 9.7 | 0.00 | 0.00 | 0.00 | 46 | 1011.3 |
| 20260510150013 | 20 | 43 | 3.2 | 9.7 | 0.00 | 0.00 | 0.00 | 46 | 1011.1 |
| 20260510145915 | 20 | 53 | 1.6 | 4.8 | 0.00 | 0.00 | 0.00 | 46 | 1011.2 |
| 20260510145825 | 19 | 147 | 0.0 | 9.7 | 0.00 | 0.00 | 0.00 | 46 | 1011.2 |
| 20260510145809 | 19 | 73 | 1.6 | 9.7 | 0.00 | 0.00 | 0.00 | 47 | 1011.2 |
| 20260510145755 | 19 | 114 | 1.6 | 9.7 | 0.00 | 0.00 | 0.00 | 47 | 1011.2 |
| 20260510145514 | 19 | 154 | 0.0 | 9.7 | 0.00 | 0.00 | 0.00 | 46 | 1011.2 |
| 20260510145414 | 19 | 192 | 0.0 | 9.7 | 0.00 | 0.00 | 0.00 | 45 | 1011.2 |
| 20260510145351 | 19 | 186 | 0.0 | 9.7 | 0.00 | 0.00 | 0.00 | 46 | 1011.3 |
| 20260510145334 | 19 | 199 | 3.2 | 9.7 | 0.00 | 0.00 | 0.00 | 45 | 1011.3 |
| 20260510145318 | 19 | 178 | 0.0 | 9.7 | 0.00 | 0.00 | 0.00 | 46 | 1011.4 |
| 20260510145305 | 19 | 160 | 0.0 | 9.7 | 0.00 | 0.00 | 0.00 | 46 | 1011.4 |
| 20260510145034 | 19 | 110 | 1.6 | 9.7 | 0.00 | 0.00 | 0.00 | 46 | 1011.4 |
| 20260510144713 | 19 | 65 | 6.4 | 9.7 | 0.00 | 0.00 | 0.00 | 46 | 1011.5 |
| 20260510144657 | 19 | 71 | 3.2 | 9.7 | 0.00 | 0.00 | 0.00 | 46 | 1011.4 |
| 20260510144643 | 19 | 71 | 1.6 | 9.7 | 0.00 | 0.00 | 0.00 | 47 | 1011.4 |
| 20260510144634 | 19 | 120 | 3.2 | 9.7 | 0.00 | 0.00 | 0.00 | 46 | 1011.1 |
| 20260510144331 | 19 | 179 | 0.0 | 3.2 | 0.00 | 0.00 | 0.00 | 48 | 1011.4 |
| 20260510144325 | 19 | 131 | 1.6 | 3.2 | 0.00 | 0.00 | 0.00 | 46 | 1011.2 |
| 20260510144309 | 19 | 69 | 1.6 | 3.2 | 0.00 | 0.00 | 0.00 | 47 | 1011.4 |
| 20260510144254 | 19 | 176 | 0.0 | 3.2 | 0.00 | 0.00 | 0.00 | 49 | 1011.4 |
| 20260510144013 | 19 | 179 | 0.0 | 4.8 | 0.00 | 0.00 | 0.00 | 48 | 1011.3 |
| 20260510143913 | 19 | 172 | 0.0 | 4.8 | 0.00 | 0.00 | 0.00 | 47 | 1011.2 |
| 20260510143837 | 19 | 157 | 0.0 | 11.3 | 0.00 | 0.00 | 0.00 | 46 | 1012.0 |
| 20260510143829 | 19 | 78 | 0.0 | 4.8 | 0.00 | 0.00 | 0.00 | 47 | 1011.6 |
| 20260510143825 | 19 | 93 | 1.6 | 11.3 | 0.00 | 0.00 | 0.00 | 46 | 1012.1 |
| 20260510143818 | 19 | 152 | 0.0 | 4.8 | 0.00 | 0.00 | 0.00 | 47 | 1011.4 |
| 20260510143802 | 19 | 179 | 0.0 | 4.8 | 0.00 | 0.00 | 0.00 | 47 | 1011.2 |
| 20260510143747 | 19 | 172 | 0.0 | 6.4 | 0.00 | 0.00 | 0.00 | 47 | 1011.1 |
| 20260510143732 | 19 | 117 | 1.6 | 6.4 | 0.00 | 0.00 | 0.00 | 46 | 1011.1 |
| 20260510143725 | 19 | 136 | 0.0 | 6.4 | 0.00 | 0.00 | 0.00 | 47 | 1011.2 |
| 20260510143448 | 19 | 69 | 3.2 | 9.7 | 0.00 | 0.00 | 0.00 | 46 | 1011.5 |
| 20260510143224 | 19 | 71 | 1.6 | 9.7 | 0.00 | 0.00 | 0.00 | 46 | 1011.6 |
| 20260510143208 | 19 | 82 | 3.2 | 9.7 | 0.00 | 0.00 | 0.00 | 46 | 1011.5 |
| 20260510143153 | 19 | 62 | 4.8 | 9.7 | 0.00 | 0.00 | 0.00 | 46 | 1011.5 |
| 20260510143146 | 19 | 49 | 3.2 | 9.7 | 0.00 | 0.00 | 0.00 | 46 | 1011.4 |
| 20260510143131 | 19 | 65 | 3.2 | 9.7 | 0.00 | 0.00 | 0.00 | 47 | 1011.5 |
| 20260510143113 | 19 | 80 | 3.2 | 9.7 | 0.00 | 0.00 | 0.00 | 47 | 1011.5 |
| 20260510142835 | 19 | 96 | 0.0 | 9.7 | 0.00 | 0.00 | 0.00 | 47 | 1011.5 |
| 20260510142820 | 19 | 67 | 4.8 | 9.7 | 0.00 | 0.00 | 0.00 | 46 | 1011.5 |
| 20260510142551 | 19 | 69 | 1.6 | 4.8 | 0.00 | 0.00 | 0.00 | 47 | 1011.5 |
| 20260510142519 | 19 | 80 | 3.2 | 4.8 | 0.00 | 0.00 | 0.00 | 47 | 1011.6 |
| 20260510142500 | 19 | 82 | 1.6 | 4.8 | 0.00 | 0.00 | 0.00 | 47 | 1011.6 |
| 20260510142422 | 19 | 195 | 0.0 | 4.8 | 0.00 | 0.00 | 0.00 | 47 | 1011.7 |
| 20260510142142 | 19 | 99 | 0.0 | 4.8 | 0.00 | 0.00 | 0.00 | 47 | 1011.8 |
| 20260510141907 | 19 | 92 | 1.6 | 4.8 | 0.00 | 0.00 | 0.00 | 46 | 1011.8 |
| 20260510141900 | 19 | 88 | 1.6 | 4.8 | 0.00 | 0.00 | 0.00 | 46 | 1011.9 |
| 20260510141839 | 19 | 139 | 1.6 | 4.8 | 0.00 | 0.00 | 0.00 | 46 | 1011.8 |
| 20260510141553 | 19 | 152 | 0.0 | 4.8 | 0.00 | 0.00 | 0.00 | 47 | 1012.0 |
| 20260510141049 | 18 | 140 | 0.0 | 11.3 | 0.00 | 0.00 | 0.00 | 46 | 1012.0 |
| 20260510140807 | 19 | 114 | 0.0 | 11.3 | 0.00 | 0.00 | 0.00 | 46 | 1012.0 |
| 20260510140751 | 19 | 99 | 0.0 | 11.3 | 0.00 | 0.00 | 0.00 | 46 | 1012.0 |
| 20260510140513 | 19 | 176 | 0.0 | 11.3 | 0.00 | 0.00 | 0.00 | 46 | 1011.8 |
| 20260510140436 | 19 | 207 | 1.6 | 4.8 | 0.00 | 0.00 | 0.00 | 46 | 1012.1 |
| 20260510140432 | 19 | 106 | 0.0 | 4.8 | 0.00 | 0.00 | 0.00 | 47 | 1011.9 |
| 20260510140427 | 19 | 190 | 0.0 | 11.3 | 0.00 | 0.00 | 0.00 | 46 | 1011.9 |
| 20260510140413 | 19 | 207 | 4.8 | 11.3 | 0.00 | 0.00 | 0.00 | 46 | 1011.9 |
| 20260510140333 | 19 | 213 | 8.0 | 9.7 | 0.00 | 0.00 | 0.00 | 47 | 1012.1 |
| 20260510140100 | 19 | 181 | 0.0 | 4.8 | 0.00 | 0.00 | 0.00 | 46 | 1012.1 |
| 20260510140045 | 19 | 167 | 3.2 | 4.8 | 0.00 | 0.00 | 0.00 | 46 | 1011.8 |
| 20260510135810 | 19 | 191 | 0.0 | 4.8 | 0.00 | 0.00 | 0.00 | 46 | 1012.1 |
| 20260510135501 | 19 | 149 | 0.0 | 4.8 | 0.00 | 0.00 | 0.00 | 49 | 1011.7 |
| 20260510135406 | 19 | 147 | 0.0 | 4.8 | 0.00 | 0.00 | 0.00 | 50 | 1011.9 |
| 20260510135300 | 19 | 170 | 0.0 | 4.8 | 0.00 | 0.00 | 0.00 | 48 | 1012.0 |
| 20260510135204 | 19 | 67 | 3.2 | 9.7 | 0.00 | 0.00 | 0.00 | 48 | 1012.0 |
| 20260510135119 | 19 | 62 | 1.6 | 9.7 | 0.00 | 0.00 | 0.00 | 48 | 1012.0 |
| 20260510135031 | 19 | 81 | 3.2 | 9.7 | 0.00 | 0.00 | 0.00 | 47 | 1012.0 |
| 20260510135000 | 19 | 129 | 1.6 | 9.7 | 0.00 | 0.00 | 0.00 | 47 | 1011.9 |
| 20260510134900 | 19 | 49 | 1.6 | 9.7 | 0.00 | 0.00 | 0.00 | 48 | 1012.0 |
| 20260510134831 | 18 | 73 | 3.2 | 9.7 | 0.00 | 0.00 | 0.00 | 48 | 1012.0 |
| 20260510134823 | 19 | 53 | 3.2 | 9.7 | 0.00 | 0.00 | 0.00 | 48 | 1012.3 |
| 20260510134807 | 19 | 168 | 0.0 | 9.7 | 0.00 | 0.00 | 0.00 | 47 | 1012.1 |
| 20260510134751 | 19 | 119 | 1.6 | 9.7 | 0.00 | 0.00 | 0.00 | 47 | 1012.0 |
| 20260510134512 | 19 | 130 | 0.0 | 6.4 | 0.00 | 0.00 | 0.00 | 48 | 1012.1 |
| 20260510134507 | 18 | 155 | 0.0 | 9.7 | 0.00 | 0.00 | 0.00 | 48 | 1011.9 |
| 20260510134405 | 18 | 63 | 3.2 | 9.7 | 0.00 | 0.00 | 0.00 | 48 | 1012.1 |
| 20260510134337 | 19 | 55 | 4.8 | 9.7 | 0.00 | 0.00 | 0.00 | 47 | 1012.1 |
| 20260510134314 | 19 | 132 | 0.0 | 6.4 | 0.00 | 0.00 | 0.00 | 47 | 1012.1 |
| 20260510134259 | 19 | 41 | 3.2 | 6.4 | 0.00 | 0.00 | 0.00 | 46 | 1012.1 |
| 20260510134247 | 19 | 130 | 0.0 | 6.4 | 0.00 | 0.00 | 0.00 | 48 | 1012.1 |
| 20260510134236 | 19 | 165 | 0.0 | 6.4 | 0.00 | 0.00 | 0.00 | 48 | 1012.0 |
| 20260510133953 | 19 | 156 | 0.0 | 6.4 | 0.00 | 0.00 | 0.00 | 48 | 1012.2 |
| 20260510133700 | 19 | 158 | 0.0 | 6.4 | 0.00 | 0.00 | 0.00 | 46 | 1012.4 |
| 20260510133556 | 19 | 20 | 3.2 | 6.4 | 0.00 | 0.00 | 0.00 | 47 | 1012.3 |
| 20260510133528 | 19 | 36 | 1.6 | 4.8 | 0.00 | 0.00 | 0.00 | 47 | 1012.3 |
| 20260510133515 | 18 | 198 | 0.0 | 9.7 | 0.00 | 0.00 | 0.00 | 47 | 1012.4 |
| 20260510133508 | 19 | 175 | 0.0 | 4.8 | 0.00 | 0.00 | 0.00 | 46 | 1012.3 |
| 20260510133500 | 19 | 81 | 0.0 | 4.8 | 0.00 | 0.00 | 0.00 | 48 | 1012.3 |
| 20260510133437 | 18 | 70 | 1.6 | 4.8 | 0.00 | 0.00 | 0.00 | 47 | 1012.0 |
| 20260510133418 | 18 | 117 | 0.0 | 4.8 | 0.00 | 0.00 | 0.00 | 47 | 1012.0 |
| 20260510133100 | 19 | 162 | 0.0 | 4.8 | 0.00 | 0.00 | 0.00 | 46 | 1012.3 |
| 20260510133051 | 19 | 175 | 0.0 | 4.8 | 0.00 | 0.00 | 0.00 | 46 | 1012.3 |
| 20260510133034 | 19 | 153 | 1.6 | 4.8 | 0.00 | 0.00 | 0.00 | 47 | 1012.1 |
| 20260510133018 | 19 | 59 | 3.2 | 4.8 | 0.00 | 0.00 | 0.00 | 46 | 1012.3 |
| 20260510133002 | 19 | 181 | 0.0 | 9.7 | 0.00 | 0.00 | 0.00 | 47 | 1012.3 |
| 20260510132724 | 18 | 180 | 0.0 | 9.7 | 0.00 | 0.00 | 0.00 | 48 | 1012.4 |
| 20260510132713 | 18 | 198 | 0.0 | 9.7 | 0.00 | 0.00 | 0.00 | 47 | 1012.4 |
| 20260510132403 | 18 | 128 | 3.2 | 9.7 | 0.00 | 0.00 | 0.00 | 46 | 1012.4 |
| 20260510132156 | 19 | 158 | 0.0 | 9.7 | 0.00 | 0.00 | 0.00 | 46 | 1012.7 |
| 20260510132056 | 19 | 183 | 0.0 | 9.7 | 0.00 | 0.00 | 0.00 | 45 | 1012.3 |
| 20260510132028 | 19 | 196 | 0.0 | 9.7 | 0.00 | 0.00 | 0.00 | 45 | 1012.3 |
| 20260510131959 | 19 | 200 | 0.0 | 9.7 | 0.00 | 0.00 | 0.00 | 46 | 1012.5 |
| 20260510131856 | 18 | 226 | 8.0 | 9.7 | 0.00 | 0.00 | 0.00 | 46 | 1012.7 |
| 20260510131757 | 18 | 197 | 3.2 | 9.7 | 0.00 | 0.00 | 0.00 | 47 | 1012.7 |
| 20260510131656 | 18 | 188 | 0.0 | 9.7 | 0.00 | 0.00 | 0.00 | 46 | 1012.9 |
| 20260510131556 | 18 | 211 | 4.8 | 9.7 | 0.00 | 0.00 | 0.00 | 47 | 1012.5 |
| 20260510131528 | 18 | 190 | 1.6 | 4.8 | 0.00 | 0.00 | 0.00 | 47 | 1012.5 |
| 20260510131457 | 18 | 186 | 0.0 | 4.8 | 0.00 | 0.00 | 0.00 | 50 | 1012.6 |
| 20260510131440 | 19 | 127 | 0.0 | 4.8 | 0.00 | 0.00 | 0.00 | 47 | 1012.6 |
| 20260510131403 | 18 | 190 | 3.2 | 4.8 | 0.00 | 0.00 | 0.00 | 47 | 1013.0 |
| 20260510131258 | 19 | 145 | 1.6 | 4.8 | 0.00 | 0.00 | 0.00 | 48 | 1012.6 |
| 20260510131243 | 19 | 43 | 1.6 | 4.8 | 0.00 | 0.00 | 0.00 | 47 | 1012.8 |
| 20260510131228 | 19 | 161 | 0.0 | 4.8 | 0.00 | 0.00 | 0.00 | 47 | 1012.6 |
| 20260510130856 | 19 | 116 | 0.0 | 4.8 | 0.00 | 0.00 | 0.00 | 47 | 1012.8 |
| 20260510130756 | 20 | 57 | 1.6 | 4.8 | 0.00 | 0.00 | 0.00 | 46 | 1012.9 |
| 20260510130656 | 20 | 196 | 0.0 | 4.8 | 0.00 | 0.00 | 0.00 | 49 | 1012.8 |
| 20260510130556 | 20 | 198 | 0.0 | 4.8 | 0.00 | 0.00 | 0.00 | 49 | 1012.8 |
| 20260510130544 | 19 | 199 | 0.0 | 4.8 | 0.00 | 0.00 | 0.00 | 49 | 1012.8 |
| 20260510130401 | 19 | 201 | 0.0 | 6.4 | 0.00 | 0.00 | 0.00 | 46 | 1012.7 |
| 20260510130257 | 19 | 211 | 0.0 | 6.4 | 0.00 | 0.00 | 0.00 | 46 | 1012.5 |
| 20260510130200 | 19 | 219 | 0.0 | 9.7 | 0.00 | 0.00 | 0.00 | 48 | 1012.7 |
| 20260510130148 | 19 | 199 | 0.0 | 9.7 | 0.00 | 0.00 | 0.00 | 47 | 1012.6 |
| 20260510130125 | 19 | 203 | 0.0 | 9.7 | 0.00 | 0.00 | 0.00 | 48 | 1012.6 |
| 20260510130116 | 19 | 192 | 0.0 | 9.7 | 0.00 | 0.00 | 0.00 | 50 | 1012.5 |
| 20260510125811 | 18 | 201 | 1.6 | 9.7 | 0.00 | 0.00 | 0.00 | 47 | 1012.6 |
| 20260510125801 | 18 | 187 | 0.0 | 9.7 | 0.00 | 0.00 | 0.00 | 48 | 1012.7 |
| 20260510125705 | 18 | 105 | 1.6 | 11.3 | 0.00 | 0.00 | 0.00 | 49 | 1012.8 |
| 20260510125658 | 18 | 202 | 0.0 | 9.7 | 0.00 | 0.00 | 0.00 | 47 | 1012.6 |
| 20260510125647 | 18 | 60 | 1.6 | 12.9 | 0.00 | 0.00 | 0.00 | 52 | 1012.8 |
| 20260510125613 | 18 | 185 | 1.6 | 9.7 | 0.00 | 0.00 | 0.00 | 47 | 1012.6 |
| 20260510125602 | 18 | 201 | 1.6 | 9.7 | 0.00 | 0.00 | 0.00 | 47 | 1012.6 |
| 20260510125456 | 18 | 211 | 0.0 | 9.7 | 0.00 | 0.00 | 0.00 | 47 | 1012.9 |
| 20260510125425 | 18 | 105 | 1.6 | 11.3 | 0.00 | 0.00 | 0.00 | 49 | 1012.8 |
| 20260510125420 | 18 | 60 | 1.6 | 12.9 | 0.00 | 0.00 | 0.00 | 52 | 1012.8 |
| 20260510125409 | 18 | 207 | 6.4 | 9.7 | 0.00 | 0.00 | 0.00 | 46 | 1012.7 |
| 20260510125352 | 19 | 208 | 4.8 | 9.7 | 0.00 | 0.00 | 0.00 | 47 | 1012.9 |
| 20260510125337 | 19 | 191 | 1.6 | 6.4 | 0.00 | 0.00 | 0.00 | 48 | 1012.8 |
| 20260510125102 | 18 | 184 | 0.0 | 6.4 | 0.00 | 0.00 | 0.00 | 48 | 1012.8 |
| 20260510125054 | 18 | 198 | 0.0 | 6.4 | 0.00 | 0.00 | 0.00 | 47 | 1012.8 |
| 20260510125029 | 18 | 199 | 0.0 | 11.3 | 0.00 | 0.00 | 0.00 | 48 | 1013.0 |
| 20260510125013 | 18 | 41 | 3.2 | 11.3 | 0.00 | 0.00 | 0.00 | 48 | 1012.8 |
| 20260510124947 | 18 | 85 | 0.0 | 11.3 | 0.00 | 0.00 | 0.00 | 49 | 1013.0 |
| 20260510124932 | 18 | 183 | 0.0 | 11.3 | 0.00 | 0.00 | 0.00 | 48 | 1012.8 |
| 20260510124447 | 18 | 46 | 1.6 | 11.3 | 0.00 | 0.00 | 0.00 | 49 | 1012.9 |
| 20260510124430 | 18 | 63 | 6.4 | 12.9 | 0.00 | 0.00 | 0.00 | 48 | 1012.9 |
| 20260510124155 | 18 | 51 | 1.6 | 12.9 | 0.00 | 0.00 | 0.00 | 50 | 1012.8 |
| 20260510124130 | 18 | 60 | 1.6 | 12.9 | 0.00 | 0.00 | 0.00 | 52 | 1012.8 |
| 20260510124117 | 18 | 192 | 6.4 | 12.9 | 0.00 | 0.00 | 0.00 | 48 | 1012.7 |
| 20260510123756 | 18 | 77 | 3.2 | 12.9 | 0.00 | 0.00 | 0.00 | 48 | 1012.9 |
| 20260510123659 | 18 | 55 | 6.4 | 12.9 | 0.00 | 0.00 | 0.00 | 48 | 1012.9 |
| 20260510123620 | 18 | 48 | 3.2 | 6.4 | 0.00 | 0.00 | 0.00 | 49 | 1012.7 |
| 20260510123612 | 18 | 190 | 0.0 | 9.7 | 0.00 | 0.00 | 0.00 | 48 | 1012.9 |
| 20260510123608 | 18 | 70 | 1.6 | 6.4 | 0.00 | 0.00 | 0.00 | 50 | 1013.3 |
| 20260510123604 | 18 | 180 | 0.0 | 11.3 | 0.00 | 0.00 | 0.00 | 51 | 1013.2 |
| 20260510123558 | 18 | 80 | 1.6 | 12.9 | 0.00 | 0.00 | 0.00 | 48 | 1012.9 |
| 20260510123545 | 18 | 137 | 0.0 | 12.9 | 0.00 | 0.00 | 0.00 | 50 | 1012.9 |
| 20260510123536 | 18 | 49 | 4.8 | 12.9 | 0.00 | 0.00 | 0.00 | 49 | 1012.8 |
| 20260510123520 | 18 | 92 | 1.6 | 12.9 | 0.00 | 0.00 | 0.00 | 51 | 1012.9 |
| 20260510123241 | 18 | 129 | 0.0 | 9.7 | 0.00 | 0.00 | 0.00 | 50 | 1012.6 |
| 20260510123224 | 18 | 61 | 1.6 | 6.4 | 0.00 | 0.00 | 0.00 | 50 | 1012.7 |
| 20260510123055 | 18 | 180 | 0.0 | 4.8 | 0.00 | 0.00 | 0.00 | 49 | 1012.8 |
| 20260510123039 | 18 | 56 | 0.0 | 4.8 | 0.00 | 0.00 | 0.00 | 49 | 1012.9 |
| 20260510123024 | 18 | 174 | 0.0 | 6.4 | 0.00 | 0.00 | 0.00 | 52 | 1012.8 |
| 20260510122746 | 18 | 186 | 0.0 | 9.7 | 0.00 | 0.00 | 0.00 | 51 | 1013.0 |
| 20260510122732 | 18 | 184 | 0.0 | 9.7 | 0.00 | 0.00 | 0.00 | 51 | 1013.0 |
| 20260510122729 | 18 | 153 | 1.6 | 9.7 | 0.00 | 0.00 | 0.00 | 50 | 1013.0 |
| 20260510122705 | 18 | 150 | 0.0 | 9.7 | 0.00 | 0.00 | 0.00 | 49 | 1013.1 |
| 20260510122627 | 18 | 51 | 0.0 | 9.7 | 0.00 | 0.00 | 0.00 | 49 | 1012.9 |
| 20260510122343 | 18 | 32 | 1.6 | 9.7 | 0.00 | 0.00 | 0.00 | 49 | 1013.0 |
| 20260510122332 | 18 | 53 | 1.6 | 9.7 | 0.00 | 0.00 | 0.00 | 50 | 1013.0 |
| 20260510122306 | 18 | 85 | 0.0 | 6.4 | 0.00 | 0.00 | 0.00 | 49 | 1012.9 |
| 20260510122247 | 18 | 206 | 0.0 | 6.4 | 0.00 | 0.00 | 0.00 | 48 | 1013.2 |
| 20260510122228 | 18 | 205 | 0.0 | 9.7 | 0.00 | 0.00 | 0.00 | 48 | 1012.9 |
| 20260510122001 | 18 | 199 | 1.6 | 9.7 | 0.00 | 0.00 | 0.00 | 48 | 1013.2 |
| 20260510121944 | 18 | 202 | 0.0 | 9.7 | 0.00 | 0.00 | 0.00 | 48 | 1013.2 |
| 20260510121928 | 18 | 210 | 0.0 | 9.7 | 0.00 | 0.00 | 0.00 | 48 | 1013.1 |
| 20260510121909 | 18 | 153 | 0.0 | 9.7 | 0.00 | 0.00 | 0.00 | 48 | 1013.1 |
| 20260510121632 | 18 | 173 | 0.0 | 9.7 | 0.00 | 0.00 | 0.00 | 50 | 1013.2 |
| 20260510121623 | 18 | 194 | 0.0 | 9.7 | 0.00 | 0.00 | 0.00 | 48 | 1013.2 |
| 20260510121346 | 18 | 53 | 1.6 | 9.7 | 0.00 | 0.00 | 0.00 | 50 | 1013.2 |
| 20260510121329 | 18 | 64 | 3.2 | 9.7 | 0.00 | 0.00 | 0.00 | 51 | 1013.2 |
| 20260510120842 | 18 | 143 | 0.0 | 6.4 | 0.00 | 0.00 | 0.00 | 50 | 1013.3 |
| 20260510120604 | 17 | 181 | 0.0 | 6.4 | 0.00 | 0.00 | 0.00 | 51 | 1013.4 |
| 20260510120109 | 18 | 149 | 0.0 | 9.7 | 0.00 | 0.00 | 0.00 | 48 | 1013.5 |
| 20260510120053 | 18 | 58 | 3.2 | 9.7 | 0.00 | 0.00 | 0.00 | 48 | 1013.4 |
| 20260510120037 | 18 | 165 | 0.0 | 11.3 | 0.00 | 0.00 | 0.00 | 49 | 1013.4 |
| 20260510115802 | 18 | 79 | 1.6 | 11.3 | 0.00 | 0.00 | 0.00 | 51 | 1013.4 |
| 20260510115746 | 18 | 38 | 1.6 | 11.3 | 0.00 | 0.00 | 0.00 | 50 | 1013.2 |
| 20260510115457 | 18 | 64 | 3.2 | 11.3 | 0.00 | 0.00 | 0.00 | 49 | 1013.3 |
| 20260510115355 | 18 | 158 | 0.0 | 11.3 | 0.00 | 0.00 | 0.00 | 50 | 1013.5 |
| 20260510115343 | 17 | 183 | 1.6 | 11.3 | 0.00 | 0.00 | 0.00 | 49 | 1013.1 |
| 20260510115339 | 17 | 92 | 1.6 | 11.3 | 0.00 | 0.00 | 0.00 | 51 | 1013.3 |
| 20260510115330 | 17 | 55 | 1.6 | 11.3 | 0.00 | 0.00 | 0.00 | 51 | 1013.4 |
| 20260510115314 | 17 | 122 | 0.0 | 11.3 | 0.00 | 0.00 | 0.00 | 51 | 1013.1 |
| 20260510115258 | 17 | 105 | 0.0 | 11.3 | 0.00 | 0.00 | 0.00 | 49 | 1013.1 |
| 20260510115028 | 17 | 33 | 4.8 | 11.3 | 0.00 | 0.00 | 0.00 | 52 | 1013.4 |
| 20260510115013 | 17 | 164 | 0.0 | 11.3 | 0.00 | 0.00 | 0.00 | 50 | 1013.5 |
| 20260510114958 | 17 | 0 | 1.6 | 11.3 | 0.00 | 0.00 | 0.00 | 50 | 1013.5 |
| 20260510114942 | 17 | 215 | 1.6 | 11.3 | 0.00 | 0.00 | 0.00 | 49 | 1013.4 |
| 20260510114926 | 17 | 67 | 1.6 | 11.3 | 0.00 | 0.00 | 0.00 | 49 | 1013.3 |
| 20260510114358 | 17 | 69 | 1.6 | 9.7 | 0.00 | 0.00 | 0.00 | 51 | 1013.5 |
| 20260510114256 | 17 | 72 | 0.0 | 9.7 | 0.00 | 0.00 | 0.00 | 51 | 1013.4 |
| 20260510114240 | 17 | 69 | 3.2 | 9.7 | 0.00 | 0.00 | 0.00 | 50 | 1013.6 |
| 20260510114224 | 17 | 107 | 0.0 | 9.7 | 0.00 | 0.00 | 0.00 | 52 | 1013.6 |
| 20260510114209 | 17 | 129 | 1.6 | 9.7 | 0.00 | 0.00 | 0.00 | 52 | 1013.6 |
| 20260510113856 | 17 | 46 | 4.8 | 9.7 | 0.00 | 0.00 | 0.00 | 50 | 1013.6 |
| 20260510113756 | 17 | 46 | 4.8 | 9.7 | 0.00 | 0.00 | 0.00 | 51 | 1013.5 |
| 20260510113739 | 17 | 80 | 0.0 | 14.5 | 0.00 | 0.00 | 0.00 | 50 | 1013.6 |
| 20260510113729 | 17 | 61 | 3.2 | 12.9 | 0.00 | 0.00 | 0.00 | 51 | 1013.5 |
| 20260510113714 | 17 | 102 | 3.2 | 12.9 | 0.00 | 0.00 | 0.00 | 50 | 1013.6 |
| 20260510113701 | 17 | 55 | 3.2 | 12.9 | 0.00 | 0.00 | 0.00 | 53 | 1013.6 |
| 20260510113652 | 17 | 141 | 0.0 | 12.9 | 0.00 | 0.00 | 0.00 | 50 | 1013.4 |
| 20260510113636 | 17 | 52 | 4.8 | 12.9 | 0.00 | 0.00 | 0.00 | 50 | 1013.6 |
| 20260510113621 | 17 | 175 | 0.0 | 12.9 | 0.00 | 0.00 | 0.00 | 51 | 1013.8 |
| 20260510113345 | 17 | 79 | 1.6 | 14.5 | 0.00 | 0.00 | 0.00 | 50 | 1013.6 |
| 20260510113117 | 17 | 117 | 0.0 | 14.5 | 0.00 | 0.00 | 0.00 | 51 | 1013.5 |
| 20260510112827 | 17 | 145 | 3.2 | 14.5 | 0.00 | 0.00 | 0.00 | 50 | 1013.8 |
| 20260510112819 | 17 | 67 | 6.4 | 14.5 | 0.00 | 0.00 | 0.00 | 50 | 1013.7 |
| 20260510112804 | 17 | 75 | 1.6 | 14.5 | 0.00 | 0.00 | 0.00 | 51 | 1013.7 |
| 20260510112748 | 17 | 76 | 1.6 | 14.5 | 0.00 | 0.00 | 0.00 | 51 | 1013.8 |
| 20260510112456 | 17 | 45 | 4.8 | 14.5 | 0.00 | 0.00 | 0.00 | 51 | 1013.9 |
| 20260510112358 | 17 | 168 | 0.0 | 14.5 | 0.00 | 0.00 | 0.00 | 51 | 1013.9 |
| 20260510112257 | 17 | 119 | 4.8 | 14.5 | 0.00 | 0.00 | 0.00 | 50 | 1013.8 |
| 20260510112230 | 17 | 83 | 1.6 | 11.3 | 0.00 | 0.00 | 0.00 | 51 | 1013.8 |
| 20260510112214 | 17 | 47 | 6.4 | 11.3 | 0.00 | 0.00 | 0.00 | 50 | 1013.6 |
| 20260510112158 | 17 | 95 | 1.6 | 11.3 | 0.00 | 0.00 | 0.00 | 51 | 1013.6 |
| 20260510112149 | 17 | 69 | 3.2 | 11.3 | 0.00 | 0.00 | 0.00 | 50 | 1013.8 |
| 20260510112134 | 17 | 184 | 1.6 | 11.3 | 0.00 | 0.00 | 0.00 | 49 | 1013.9 |
| 20260510112117 | 17 | 60 | 1.6 | 11.3 | 0.00 | 0.00 | 0.00 | 50 | 1013.5 |
| 20260510112101 | 17 | 78 | 3.2 | 11.3 | 0.00 | 0.00 | 0.00 | 50 | 1013.8 |
| 20260510111829 | 18 | 140 | 3.2 | 11.3 | 0.00 | 0.00 | 0.00 | 49 | 1013.7 |
| 20260510111257 | 18 | 213 | 4.8 | 9.7 | 0.00 | 0.00 | 0.00 | 49 | 1013.6 |
| 20260510111156 | 18 | 104 | 0.0 | 9.7 | 0.00 | 0.00 | 0.00 | 51 | 1013.9 |
| 20260510111056 | 18 | 198 | 4.8 | 9.7 | 0.00 | 0.00 | 0.00 | 52 | 1013.9 |
| 20260510111040 | 17 | 211 | 3.2 | 6.4 | 0.00 | 0.00 | 0.00 | 51 | 1013.9 |
| 20260510111031 | 17 | 191 | 0.0 | 9.7 | 0.00 | 0.00 | 0.00 | 54 | 1013.9 |
| 20260510111015 | 17 | 186 | 0.0 | 9.7 | 0.00 | 0.00 | 0.00 | 53 | 1014.0 |
| 20260510110656 | 17 | 113 | 0.0 | 9.7 | 0.00 | 0.00 | 0.00 | 54 | 1014.0 |
| 20260510110556 | 17 | 60 | 0.0 | 12.9 | 0.00 | 0.00 | 0.00 | 53 | 1014.0 |
| 20260510110542 | 17 | 133 | 0.0 | 12.9 | 0.00 | 0.00 | 0.00 | 52 | 1014.0 |
| 20260510110458 | 17 | 114 | 3.2 | 20.9 | 0.00 | 0.00 | 0.00 | 51 | 1014.1 |
| 20260510110356 | 17 | 51 | 4.8 | 20.9 | 0.00 | 0.00 | 0.00 | 51 | 1014.1 |
| 20260510110328 | 16 | 55 | 3.2 | 20.9 | 0.00 | 0.00 | 0.00 | 52 | 1013.8 |
| 20260510110320 | 17 | 110 | 0.0 | 20.9 | 0.00 | 0.00 | 0.00 | 52 | 1014.1 |
| 20260510110304 | 17 | 115 | 0.0 | 20.9 | 0.00 | 0.00 | 0.00 | 53 | 1014.0 |
| 20260510110247 | 17 | 120 | 1.6 | 20.9 | 0.00 | 0.00 | 0.00 | 52 | 1013.8 |
| 20260510105956 | 16 | 177 | 1.6 | 20.9 | 0.00 | 0.00 | 0.00 | 51 | 1014.0 |
| 20260510105934 | 16 | 204 | 4.8 | 20.9 | 0.00 | 0.00 | 0.00 | 51 | 1013.8 |
| 20260510105917 | 16 | 147 | 3.2 | 20.9 | 0.00 | 0.00 | 0.00 | 50 | 1014.1 |
| 20260510105557 | 16 | 210 | 3.2 | 20.9 | 0.00 | 0.00 | 0.00 | 50 | 1014.2 |
| 20260510105528 | 17 | 207 | 3.2 | 12.9 | 0.00 | 0.00 | 0.00 | 50 | 1014.2 |
| 20260510105456 | 17 | 193 | 6.4 | 12.9 | 0.00 | 0.00 | 0.00 | 50 | 1014.0 |
| 20260510105356 | 17 | 164 | 4.8 | 12.9 | 0.00 | 0.00 | 0.00 | 51 | 1013.8 |
| 20260510105256 | 17 | 46 | 11.3 | 12.9 | 0.00 | 0.00 | 0.00 | 52 | 1014.0 |
| 20260510105156 | 17 | 52 | 1.6 | 12.9 | 0.00 | 0.00 | 0.00 | 53 | 1014.1 |
| 20260510105057 | 17 | 59 | 3.2 | 12.9 | 0.00 | 0.00 | 0.00 | 53 | 1014.0 |
| 20260510105028 | 16 | 69 | 3.2 | 12.9 | 0.00 | 0.00 | 0.00 | 52 | 1014.0 |
| 20260510104956 | 16 | 61 | 6.4 | 12.9 | 0.00 | 0.00 | 0.00 | 51 | 1014.2 |
| 20260510104856 | 16 | 42 | 4.8 | 12.9 | 0.00 | 0.00 | 0.00 | 54 | 1014.2 |
| 20260510104757 | 16 | 57 | 1.6 | 12.9 | 0.00 | 0.00 | 0.00 | 50 | 1014.2 |
| 20260510104656 | 16 | 76 | 1.6 | 12.9 | 0.00 | 0.00 | 0.00 | 52 | 1014.3 |
| 20260510104556 | 16 | 51 | 4.8 | 12.9 | 0.00 | 0.00 | 0.00 | 51 | 1014.1 |
| 20260510104528 | 16 | 115 | 3.2 | 12.9 | 0.00 | 0.00 | 0.00 | 51 | 1014.1 |
| 20260510104456 | 16 | 88 | 6.4 | 12.9 | 0.00 | 0.00 | 0.00 | 51 | 1014.3 |
| 20260510104356 | 17 | 339 | 9.7 | 12.9 | 0.00 | 0.00 | 0.00 | 50 | 1014.3 |
| 20260510104256 | 17 | 73 | 3.2 | 12.9 | 0.00 | 0.00 | 0.00 | 51 | 1014.5 |
| 20260510104157 | 16 | 68 | 1.6 | 12.9 | 0.00 | 0.00 | 0.00 | 54 | 1014.3 |
| 20260510104057 | 16 | 173 | 0.0 | 12.9 | 0.00 | 0.00 | 0.00 | 52 | 1014.3 |
| 20260510104028 | 16 | 95 | 1.6 | 12.9 | 0.00 | 0.00 | 0.00 | 53 | 1014.3 |
| 20260510103956 | 16 | 53 | 3.2 | 12.9 | 0.00 | 0.00 | 0.00 | 51 | 1014.5 |
| 20260510103856 | 16 | 48 | 6.4 | 12.9 | 0.00 | 0.00 | 0.00 | 51 | 1014.5 |
| 20260510103832 | 16 | 53 | 6.4 | 12.9 | 0.00 | 0.00 | 0.00 | 51 | 1014.5 |
| 20260510103816 | 17 | 45 | 8.0 | 12.9 | 0.00 | 0.00 | 0.00 | 51 | 1014.3 |
| 20260510103541 | 17 | 52 | 6.4 | 12.9 | 0.00 | 0.00 | 0.00 | 50 | 1014.6 |
| 20260510103532 | 17 | 43 | 1.6 | 11.3 | 0.00 | 0.00 | 0.00 | 53 | 1014.7 |
| 20260510103516 | 17 | 66 | 1.6 | 11.3 | 0.00 | 0.00 | 0.00 | 54 | 1014.7 |
| 20260510103501 | 17 | 79 | 4.8 | 11.3 | 0.00 | 0.00 | 0.00 | 51 | 1014.6 |
| 20260510103226 | 17 | 44 | 6.4 | 11.3 | 0.00 | 0.00 | 0.00 | 52 | 1014.5 |
| 20260510103211 | 17 | 52 | 3.2 | 11.3 | 0.00 | 0.00 | 0.00 | 50 | 1014.5 |
| 20260510102856 | 17 | 82 | 1.6 | 11.3 | 0.00 | 0.00 | 0.00 | 51 | 1014.7 |
| 20260510102756 | 17 | 78 | 1.6 | 11.3 | 0.00 | 0.00 | 0.00 | 51 | 1014.3 |
| 20260510102702 | 17 | 355 | 3.2 | 11.3 | 0.00 | 0.00 | 0.00 | 51 | 1014.9 |
| 20260510102557 | 17 | 66 | 1.6 | 11.3 | 0.00 | 0.00 | 0.00 | 51 | 1015.0 |
| 20260510102529 | 17 | 51 | 3.2 | 11.3 | 0.00 | 0.00 | 0.00 | 52 | 1015.0 |
| 20260510102457 | 16 | 41 | 3.2 | 11.3 | 0.00 | 0.00 | 0.00 | 53 | 1015.0 |
| 20260510102356 | 16 | 92 | 1.6 | 12.9 | 0.00 | 0.00 | 0.00 | 52 | 1014.9 |
| 20260510102256 | 16 | 82 | 0.0 | 12.9 | 0.00 | 0.00 | 0.00 | 54 | 1014.9 |
| 20260510102156 | 16 | 46 | 4.8 | 12.9 | 0.00 | 0.00 | 0.00 | 52 | 1015.0 |
| 20260510102057 | 16 | 142 | 4.8 | 12.9 | 0.00 | 0.00 | 0.00 | 53 | 1015.2 |
| 20260510102028 | 16 | 68 | 1.6 | 12.9 | 0.00 | 0.00 | 0.00 | 53 | 1015.2 |
| 20260510101957 | 16 | 111 | 0.0 | 12.9 | 0.00 | 0.00 | 0.00 | 53 | 1015.0 |
| 20260510101856 | 16 | 114 | 1.6 | 12.9 | 0.00 | 0.00 | 0.00 | 52 | 1014.9 |
| 20260510101756 | 16 | 112 | 3.2 | 12.9 | 0.00 | 0.00 | 0.00 | 54 | 1015.0 |
| 20260510101656 | 16 | 54 | 3.2 | 12.9 | 0.00 | 0.00 | 0.00 | 54 | 1015.1 |
| 20260510101555 | 16 | 84 | 3.2 | 12.9 | 0.00 | 0.00 | 0.00 | 53 | 1014.9 |
| 20260510101542 | 16 | 73 | 3.2 | 12.9 | 0.00 | 0.00 | 0.00 | 52 | 1014.9 |
| 20260510101533 | 16 | 52 | 6.4 | 12.9 | 0.00 | 0.00 | 0.00 | 52 | 1015.1 |
| 20260510101516 | 16 | 65 | 3.2 | 11.3 | 0.00 | 0.00 | 0.00 | 52 | 1015.0 |
| 20260510101156 | 16 | 72 | 1.6 | 12.9 | 0.00 | 0.00 | 0.00 | 52 | 1015.1 |
| 20260510101134 | 16 | 54 | 3.2 | 12.9 | 0.00 | 0.00 | 0.00 | 52 | 1014.9 |
| 20260510101119 | 16 | 33 | 6.4 | 12.9 | 0.00 | 0.00 | 0.00 | 52 | 1014.9 |
| 20260510101110 | 16 | 60 | 1.6 | 12.9 | 0.00 | 0.00 | 0.00 | 53 | 1015.3 |
| 20260510101053 | 16 | 167 | 1.6 | 12.9 | 0.00 | 0.00 | 0.00 | 52 | 1015.2 |
| 20260510101036 | 16 | 111 | 4.8 | 12.9 | 0.00 | 0.00 | 0.00 | 52 | 1015.1 |
| 20260510100528 | 16 | 115 | 3.2 | 12.9 | 0.00 | 0.00 | 0.00 | 53 | 1015.2 |
| 20260510100457 | 16 | 83 | 0.0 | 12.9 | 0.00 | 0.00 | 0.00 | 54 | 1015.2 |
| 20260510100356 | 16 | 40 | 8.0 | 12.9 | 0.00 | 0.00 | 0.00 | 53 | 1015.1 |
| 20260510100256 | 16 | 52 | 1.6 | 12.9 | 0.00 | 0.00 | 0.00 | 52 | 1015.2 |
| 20260510100156 | 16 | 51 | 3.2 | 12.9 | 0.00 | 0.00 | 0.00 | 52 | 1015.3 |
| 20260510100056 | 16 | 71 | 4.8 | 12.9 | 0.00 | 0.00 | 0.00 | 53 | 1015.4 |
| 20260510100029 | 16 | 45 | 3.2 | 12.9 | 0.00 | 0.00 | 0.00 | 54 | 1015.4 |
| 20260510095955 | 16 | 81 | 0.0 | 12.9 | 0.00 | 0.00 | 0.00 | 52 | 1015.3 |
| 20260510095857 | 16 | 70 | 0.0 | 12.9 | 0.00 | 0.00 | 0.00 | 53 | 1015.1 |
| 20260510095756 | 16 | 65 | 1.6 | 12.9 | 0.00 | 0.00 | 0.00 | 53 | 1015.3 |
| 20260510095657 | 16 | 66 | 4.8 | 12.9 | 0.00 | 0.00 | 0.00 | 52 | 1015.3 |
| 20260510095557 | 15 | 35 | 1.6 | 12.9 | 0.00 | 0.00 | 0.00 | 53 | 1015.4 |
| 20260510095529 | 15 | 104 | 4.8 | 12.9 | 0.00 | 0.00 | 0.00 | 52 | 1015.4 |
| 20260510095456 | 15 | 54 | 8.0 | 12.9 | 0.00 | 0.00 | 0.00 | 53 | 1015.3 |
| 20260510095432 | 15 | 79 | 3.2 | 12.9 | 0.00 | 0.00 | 0.00 | 54 | 1015.1 |
| 20260510095415 | 15 | 62 | 6.4 | 12.9 | 0.00 | 0.00 | 0.00 | 54 | 1015.2 |
| 20260510095028 | 15 | 70 | 8.0 | 12.9 | 0.00 | 0.00 | 0.00 | 54 | 1015.4 |
| 20260510094945 | 15 | 48 | 6.4 | 12.9 | 0.00 | 0.00 | 0.00 | 54 | 1015.4 |
| 20260510094844 | 16 | 64 | 8.0 | 17.7 | 0.00 | 0.00 | 0.00 | 53 | 1015.3 |
| 20260510094745 | 15 | 110 | 1.6 | 17.7 | 0.00 | 0.00 | 0.00 | 54 | 1015.0 |
| 20260510094644 | 16 | 187 | 9.7 | 17.7 | 0.00 | 0.00 | 0.00 | 54 | 1015.2 |
| 20260510094544 | 16 | 92 | 3.2 | 17.7 | 0.00 | 0.00 | 0.00 | 55 | 1015.5 |
| 20260510094529 | 16 | 82 | 1.6 | 17.7 | 0.00 | 0.00 | 0.00 | 55 | 1015.5 |
| 20260510094444 | 16 | 73 | 1.6 | 17.7 | 0.00 | 0.00 | 0.00 | 55 | 1015.4 |
| 20260510094345 | 15 | 52 | 3.2 | 17.7 | 0.00 | 0.00 | 0.00 | 55 | 1015.4 |
| 20260510094245 | 15 | 53 | 4.8 | 17.7 | 0.00 | 0.00 | 0.00 | 54 | 1015.4 |
| 20260510094229 | 16 | 71 | 6.4 | 17.7 | 0.00 | 0.00 | 0.00 | 55 | 1015.3 |
| 20260510094214 | 16 | 77 | 3.2 | 17.7 | 0.00 | 0.00 | 0.00 | 54 | 1015.2 |
| 20260510094200 | 16 | 230 | 1.6 | 17.7 | 0.00 | 0.00 | 0.00 | 55 | 1015.2 |
| 20260510093845 | 16 | 187 | 1.6 | 11.3 | 0.00 | 0.00 | 0.00 | 56 | 1015.5 |
| 20260510093824 | 16 | 166 | 6.4 | 20.9 | 0.00 | 0.00 | 0.00 | 55 | 1015.4 |
| 20260510093816 | 16 | 143 | 1.6 | 12.9 | 0.00 | 0.00 | 0.00 | 55 | 1015.4 |
| 20260510093800 | 16 | 122 | 0.0 | 12.9 | 0.00 | 0.00 | 0.00 | 55 | 1015.6 |
| 20260510093744 | 16 | 118 | 4.8 | 20.9 | 0.00 | 0.00 | 0.00 | 56 | 1015.4 |
| 20260510093445 | 16 | 157 | 0.0 | 20.9 | 0.00 | 0.00 | 0.00 | 56 | 1015.5 |
| 20260510093345 | 16 | 173 | 0.0 | 25.7 | 0.00 | 0.00 | 0.00 | 56 | 1015.4 |
| 20260510093244 | 16 | 175 | 1.6 | 25.7 | 0.00 | 0.00 | 0.00 | 56 | 1015.3 |
| 20260510093145 | 16 | 64 | 6.4 | 25.7 | 0.00 | 0.00 | 0.00 | 55 | 1015.6 |
| 20260510093034 | 15 | 208 | 3.2 | 25.7 | 0.00 | 0.00 | 0.00 | 56 | 1015.4 |
| 20260510093024 | 15 | 108 | 3.2 | 25.7 | 0.00 | 0.00 | 0.00 | 56 | 1015.5 |
| 20260510093007 | 16 | 60 | 3.2 | 25.7 | 0.00 | 0.00 | 0.00 | 55 | 1015.5 |
| 20260510092646 | 16 | 174 | 1.6 | 27.4 | 0.00 | 0.00 | 0.00 | 56 | 1015.7 |
| 20260510092544 | 15 | 172 | 1.6 | 27.4 | 0.00 | 0.00 | 0.00 | 56 | 1015.4 |
| 20260510092530 | 15 | 190 | 1.6 | 27.4 | 0.00 | 0.00 | 0.00 | 56 | 1015.4 |
| 20260510092444 | 15 | 209 | 12.9 | 27.4 | 0.00 | 0.00 | 0.00 | 56 | 1015.7 |
| 20260510092344 | 15 | 199 | 1.6 | 27.4 | 0.00 | 0.00 | 0.00 | 56 | 1015.4 |
| 20260510092321 | 16 | 173 | 6.4 | 27.4 | 0.00 | 0.00 | 0.00 | 56 | 1015.5 |
| 20260510092306 | 16 | 108 | 1.6 | 27.4 | 0.00 | 0.00 | 0.00 | 57 | 1015.6 |
| 20260510092028 | 16 | 63 | 0.0 | 27.4 | 0.00 | 0.00 | 0.00 | 54 | 1015.6 |
| 20260510091945 | 16 | 72 | 1.6 | 27.4 | 0.00 | 0.00 | 0.00 | 55 | 1015.5 |
| 20260510091845 | 16 | 47 | 1.6 | 27.4 | 0.00 | 0.00 | 0.00 | 55 | 1015.6 |
| 20260510091828 | 16 | 64 | 6.4 | 14.5 | 0.00 | 0.00 | 0.00 | 53 | 1015.5 |
| 20260510091819 | 16 | 221 | 3.2 | 27.4 | 0.00 | 0.00 | 0.00 | 55 | 1015.5 |
| 20260510091802 | 16 | 186 | 0.0 | 14.5 | 0.00 | 0.00 | 0.00 | 56 | 1015.6 |
| 20260510091746 | 16 | 39 | 6.4 | 14.5 | 0.00 | 0.00 | 0.00 | 54 | 1015.5 |
| 20260510091444 | 16 | 91 | 0.0 | 14.5 | 0.00 | 0.00 | 0.00 | 56 | 1015.6 |
| 20260510091344 | 16 | 186 | 0.0 | 14.5 | 0.00 | 0.00 | 0.00 | 56 | 1015.7 |
| 20260510091316 | 16 | 138 | 4.8 | 14.5 | 0.00 | 0.00 | 0.00 | 56 | 1015.8 |
| 20260510091300 | 16 | 172 | 1.6 | 14.5 | 0.00 | 0.00 | 0.00 | 55 | 1016.0 |
| 20260510091032 | 16 | 100 | 1.6 | 14.5 | 0.00 | 0.00 | 0.00 | 56 | 1015.8 |
| 20260510090933 | 16 | 100 | 1.6 | 14.5 | 0.00 | 0.00 | 0.00 | 55 | 1015.7 |
| 20260510090907 | 16 | 62 | 1.6 | 14.5 | 0.00 | 0.00 | 0.00 | 55 | 1015.7 |
| 20260510090852 | 16 | 71 | 0.0 | 14.5 | 0.00 | 0.00 | 0.00 | 55 | 1015.6 |
| 20260510090532 | 16 | 184 | 0.0 | 14.5 | 0.00 | 0.00 | 0.00 | 57 | 1015.7 |
| 20260510090519 | 16 | 178 | 0.0 | 11.3 | 0.00 | 0.00 | 0.00 | 59 | 1015.6 |
| 20260510090510 | 16 | 222 | 4.8 | 14.5 | 0.00 | 0.00 | 0.00 | 55 | 1015.5 |
| 20260510090455 | 16 | 175 | 3.2 | 14.5 | 0.00 | 0.00 | 0.00 | 55 | 1015.6 |
| 20260510090439 | 16 | 162 | 1.6 | 14.5 | 0.00 | 0.00 | 0.00 | 56 | 1015.7 |
| 20260510090424 | 16 | 183 | 3.2 | 14.5 | 0.00 | 0.00 | 0.00 | 55 | 1015.6 |
| 20260510090404 | 16 | 178 | 0.0 | 11.3 | 0.00 | 0.00 | 0.00 | 59 | 1015.6 |
| 20260510085909 | 15 | 55 | 6.4 | 11.3 | 0.00 | 0.00 | 0.00 | 59 | 1015.7 |
| 20260510085853 | 15 | 48 | 3.2 | 11.3 | 0.00 | 0.00 | 0.00 | 59 | 1015.7 |
| 20260510085532 | 15 | 103 | 3.2 | 11.3 | 0.00 | 0.00 | 0.00 | 58 | 1015.7 |
| 20260510085432 | 15 | 52 | 3.2 | 11.3 | 0.00 | 0.00 | 0.00 | 59 | 1015.8 |
| 20260510085332 | 15 | 138 | 0.0 | 11.3 | 0.00 | 0.00 | 0.00 | 58 | 1015.9 |
| 20260510085232 | 15 | 72 | 4.8 | 11.3 | 0.00 | 0.00 | 0.00 | 58 | 1015.8 |
| 20260510085132 | 15 | 94 | 8.0 | 11.3 | 0.00 | 0.00 | 0.00 | 57 | 1015.6 |
| 20260510085032 | 15 | 56 | 4.8 | 6.4 | 0.00 | 0.00 | 0.00 | 58 | 1015.7 |
| 20260510084635 | 15 | 50 | 3.2 | 14.5 | 0.00 | 0.00 | 0.00 | 61 | 1015.9 |
| 20260510084620 | 15 | 201 | 8.0 | 14.5 | 0.00 | 0.00 | 0.00 | 58 | 1016.1 |
| 20260510084343 | 15 | 79 | 3.2 | 14.5 | 0.00 | 0.00 | 0.00 | 59 | 1016.2 |
| 20260510084327 | 15 | 141 | 3.2 | 14.5 | 0.00 | 0.00 | 0.00 | 59 | 1016.1 |
| 20260510084308 | 15 | 53 | 6.4 | 14.5 | 0.00 | 0.00 | 0.00 | 59 | 1016.1 |
| 20260510084041 | 15 | 57 | 8.0 | 14.5 | 0.00 | 0.00 | 0.00 | 59 | 1016.0 |
| 20260510084025 | 15 | 42 | 6.4 | 14.5 | 0.00 | 0.00 | 0.00 | 58 | 1016.2 |
| 20260510083750 | 15 | 55 | 8.0 | 12.9 | 0.00 | 0.00 | 0.00 | 57 | 1016.1 |
| 20260510083522 | 15 | 52 | 6.4 | 12.9 | 0.00 | 0.00 | 0.00 | 58 | 1016.0 |
| 20260510083421 | 15 | 35 | 3.2 | 12.9 | 0.00 | 0.00 | 0.00 | 60 | 1016.0 |
| 20260510083321 | 15 | 60 | 1.6 | 12.9 | 0.00 | 0.00 | 0.00 | 59 | 1016.2 |
| 20260510083221 | 15 | 70 | 3.2 | 12.9 | 0.00 | 0.00 | 0.00 | 58 | 1016.1 |
| 20260510083122 | 15 | 41 | 3.2 | 12.9 | 0.00 | 0.00 | 0.00 | 59 | 1016.2 |
| 20260510083028 | 15 | 79 | 3.2 | 12.9 | 0.00 | 0.00 | 0.00 | 58 | 1016.2 |
| 20260510083021 | 15 | 48 | 3.2 | 12.9 | 0.00 | 0.00 | 0.00 | 58 | 1016.1 |
| 20260510082957 | 15 | 91 | 8.0 | 12.9 | 0.00 | 0.00 | 0.00 | 58 | 1016.2 |
| 20260510082941 | 15 | 59 | 3.2 | 12.9 | 0.00 | 0.00 | 0.00 | 58 | 1016.1 |
| 20260510082623 | 15 | 57 | 4.8 | 12.9 | 0.00 | 0.00 | 0.00 | 57 | 1016.2 |
| 20260510082529 | 15 | 38 | 4.8 | 12.9 | 0.00 | 0.00 | 0.00 | 57 | 1016.2 |
| 20260510082523 | 15 | 73 | 3.2 | 11.3 | 0.00 | 0.00 | 0.00 | 58 | 1016.3 |
| 20260510082500 | 15 | 51 | 3.2 | 12.9 | 0.00 | 0.00 | 0.00 | 61 | 1016.4 |
| 20260510082443 | 15 | 185 | 1.6 | 12.9 | 0.00 | 0.00 | 0.00 | 58 | 1016.4 |
| 20260510082121 | 15 | 174 | 0.0 | 12.9 | 0.00 | 0.00 | 0.00 | 59 | 1016.2 |
| 20260510082029 | 15 | 112 | 0.0 | 12.9 | 0.00 | 0.00 | 0.00 | 59 | 1016.2 |
| 20260510082022 | 15 | 112 | 0.0 | 12.9 | 0.00 | 0.00 | 0.00 | 58 | 1016.4 |
| 20260510081922 | 15 | 92 | 1.6 | 16.1 | 0.00 | 0.00 | 0.00 | 59 | 1016.4 |
| 20260510081821 | 14 | 101 | 1.6 | 16.1 | 0.00 | 0.00 | 0.00 | 61 | 1016.3 |
| 20260510081721 | 14 | 103 | 0.0 | 16.1 | 0.00 | 0.00 | 0.00 | 60 | 1016.5 |
| 20260510081620 | 15 | 124 | 1.6 | 16.1 | 0.00 | 0.00 | 0.00 | 60 | 1016.2 |
| 20260510081529 | 15 | 98 | 4.8 | 16.1 | 0.00 | 0.00 | 0.00 | 59 | 1016.2 |
| 20260510081521 | 15 | 52 | 6.4 | 16.1 | 0.00 | 0.00 | 0.00 | 59 | 1016.1 |
| 20260510081420 | 15 | 55 | 8.0 | 16.1 | 0.00 | 0.00 | 0.00 | 58 | 1016.1 |
| 20260510081323 | 15 | 50 | 3.2 | 16.1 | 0.00 | 0.00 | 0.00 | 59 | 1016.5 |
| 20260510081221 | 15 | 44 | 3.2 | 16.1 | 0.00 | 0.00 | 0.00 | 60 | 1016.3 |
| 20260510081121 | 14 | 154 | 3.2 | 17.7 | 0.00 | 0.00 | 0.00 | 61 | 1016.3 |
| 20260510081029 | 14 | 74 | 1.6 | 17.7 | 0.00 | 0.00 | 0.00 | 63 | 1016.3 |
| 20260510081021 | 14 | 95 | 1.6 | 17.7 | 0.00 | 0.00 | 0.00 | 61 | 1016.1 |
| 20260510080923 | 14 | 74 | 1.6 | 17.7 | 0.00 | 0.00 | 0.00 | 60 | 1016.3 |
| 20260510080821 | 14 | 163 | 6.4 | 17.7 | 0.00 | 0.00 | 0.00 | 60 | 1016.2 |
| 20260510080804 | 14 | 54 | 4.8 | 17.7 | 0.00 | 0.00 | 0.00 | 61 | 1016.4 |
| 20260510080748 | 14 | 153 | 4.8 | 17.7 | 0.00 | 0.00 | 0.00 | 60 | 1016.4 |
| 20260510080731 | 14 | 75 | 3.2 | 17.7 | 0.00 | 0.00 | 0.00 | 60 | 1016.4 |
| 20260510080421 | 14 | 188 | 1.6 | 17.7 | 0.00 | 0.00 | 0.00 | 60 | 1016.6 |
| 20260510080321 | 14 | 96 | 1.6 | 17.7 | 0.00 | 0.00 | 0.00 | 60 | 1016.4 |
| 20260510080222 | 14 | 198 | 12.9 | 17.7 | 0.00 | 0.00 | 0.00 | 59 | 1016.4 |
| 20260510080158 | 14 | 204 | 3.2 | 17.7 | 0.00 | 0.00 | 0.00 | 61 | 1016.6 |
| 20260510080141 | 14 | 89 | 1.6 | 17.7 | 0.00 | 0.00 | 0.00 | 61 | 1016.6 |
| 20260510080134 | 14 | 89 | 1.6 | 17.7 | 0.00 | 0.00 | 0.00 | 60 | 1016.6 |
| 20260510080118 | 14 | 38 | 1.6 | 17.7 | 0.00 | 0.00 | 0.00 | 61 | 1016.6 |
| 20260510075842 | 14 | 190 | 1.6 | 12.9 | 0.00 | 0.00 | 0.00 | 60 | 1016.3 |
| 20260510075529 | 14 | 65 | 1.6 | 11.3 | 0.00 | 0.00 | 0.00 | 61 | 1016.3 |
| 20260510075521 | 14 | 98 | 4.8 | 11.3 | 0.00 | 0.00 | 0.00 | 61 | 1016.5 |
| 20260510075421 | 15 | 78 | 0.0 | 11.3 | 0.00 | 0.00 | 0.00 | 60 | 1016.4 |
| 20260510075321 | 15 | 170 | 3.2 | 11.3 | 0.00 | 0.00 | 0.00 | 59 | 1016.4 |
| 20260510075223 | 15 | 172 | 4.8 | 9.7 | 0.00 | 0.00 | 0.00 | 61 | 1016.2 |
| 20260510075206 | 15 | 102 | 1.6 | 9.7 | 0.00 | 0.00 | 0.00 | 62 | 1016.5 |
| 20260510075149 | 14 | 81 | 4.8 | 9.7 | 0.00 | 0.00 | 0.00 | 61 | 1016.5 |
| 20260510075142 | 14 | 35 | 1.6 | 9.7 | 0.00 | 0.00 | 0.00 | 62 | 1016.6 |
| 20260510074822 | 15 | 71 | 3.2 | 9.7 | 0.00 | 0.00 | 0.00 | 60 | 1016.4 |
| 20260510074721 | 15 | 71 | 1.6 | 9.7 | 0.00 | 0.00 | 0.00 | 60 | 1016.4 |
| 20260510074620 | 15 | 54 | 1.6 | 9.7 | 0.00 | 0.00 | 0.00 | 62 | 1016.3 |
| 20260510074529 | 15 | 57 | 4.8 | 9.7 | 0.00 | 0.00 | 0.00 | 62 | 1016.3 |
| 20260510074521 | 15 | 57 | 4.8 | 9.7 | 0.00 | 0.00 | 0.00 | 61 | 1016.4 |
| 20260510074421 | 15 | 17 | 6.4 | 9.7 | 0.00 | 0.00 | 0.00 | 61 | 1016.6 |
| 20260510074320 | 14 | 65 | 0.0 | 9.7 | 0.00 | 0.00 | 0.00 | 64 | 1016.6 |
| 20260510074222 | 14 | 63 | 3.2 | 9.7 | 0.00 | 0.00 | 0.00 | 64 | 1016.5 |
| 20260510074207 | 14 | 211 | 3.2 | 9.7 | 0.00 | 0.00 | 0.00 | 62 | 1016.5 |
| 20260510074147 | 14 | 72 | 4.8 | 9.7 | 0.00 | 0.00 | 0.00 | 63 | 1016.5 |
| 20260510074141 | 14 | 72 | 4.8 | 9.7 | 0.00 | 0.00 | 0.00 | 63 | 1016.4 |
| 20260510073822 | 15 | 95 | 4.8 | 9.7 | 0.00 | 0.00 | 0.00 | 62 | 1016.5 |
| 20260510073721 | 15 | 113 | 3.2 | 9.7 | 0.00 | 0.00 | 0.00 | 63 | 1016.7 |
| 20260510073621 | 15 | 57 | 3.2 | 12.9 | 0.00 | 0.00 | 0.00 | 68 | 1016.6 |
| 20260510073529 | 14 | 151 | 0.0 | 12.9 | 0.00 | 0.00 | 0.00 | 68 | 1016.6 |
| 20260510073522 | 14 | 188 | 0.0 | 12.9 | 0.00 | 0.00 | 0.00 | 68 | 1016.6 |
| 20260510073421 | 14 | 56 | 3.2 | 12.9 | 0.00 | 0.00 | 0.00 | 66 | 1016.7 |
| 20260510073322 | 14 | 57 | 6.4 | 12.9 | 0.00 | 0.00 | 0.00 | 65 | 1016.5 |
| 20260510073221 | 14 | 161 | 0.0 | 12.9 | 0.00 | 0.00 | 0.00 | 66 | 1016.5 |
| 20260510073120 | 14 | 229 | 3.2 | 12.9 | 0.00 | 0.00 | 0.00 | 66 | 1016.5 |
| 20260510073029 | 13 | 180 | 0.0 | 12.9 | 0.00 | 0.00 | 0.00 | 66 | 1016.5 |
| 20260510073020 | 13 | 101 | 1.6 | 12.9 | 0.00 | 0.00 | 0.00 | 66 | 1016.5 |
| 20260510072921 | 13 | 63 | 1.6 | 12.9 | 0.00 | 0.00 | 0.00 | 67 | 1016.5 |
| 20260510072822 | 14 | 114 | 3.2 | 12.9 | 0.00 | 0.00 | 0.00 | 66 | 1016.5 |
| 20260510072722 | 14 | 41 | 4.8 | 12.9 | 0.00 | 0.00 | 0.00 | 66 | 1016.6 |
| 20260510072708 | 14 | 175 | 0.0 | 9.7 | 0.00 | 0.00 | 0.00 | 67 | 1016.7 |
| 20260510072659 | 14 | 45 | 3.2 | 6.4 | 0.00 | 0.00 | 0.00 | 67 | 1016.4 |
| 20260510072643 | 13 | 130 | 0.0 | 6.4 | 0.00 | 0.00 | 0.00 | 67 | 1016.4 |
| 20260510072637 | 13 | 131 | 0.0 | 6.4 | 0.00 | 0.00 | 0.00 | 67 | 1016.5 |
| 20260510072621 | 13 | 44 | 3.2 | 6.4 | 0.00 | 0.00 | 0.00 | 67 | 1016.7 |
| 20260510072604 | 13 | 72 | 3.2 | 6.4 | 0.00 | 0.00 | 0.00 | 67 | 1016.6 |
| 20260510072104 | 14 | 105 | 3.2 | 6.4 | 0.00 | 0.00 | 0.00 | 66 | 1016.4 |
| 20260510072057 | 14 | 105 | 3.2 | 6.4 | 0.00 | 0.00 | 0.00 | 66 | 1016.8 |
| 20260510072041 | 14 | 170 | 3.2 | 6.4 | 0.00 | 0.00 | 0.00 | 65 | 1016.8 |
| 20260510072025 | 14 | 177 | 0.0 | 9.7 | 0.00 | 0.00 | 0.00 | 67 | 1016.7 |
| 20260510071749 | 14 | 174 | 0.0 | 9.7 | 0.00 | 0.00 | 0.00 | 66 | 1016.7 |
| 20260510071522 | 14 | 154 | 0.0 | 9.7 | 0.00 | 0.00 | 0.00 | 67 | 1016.8 |
| 20260510071501 | 13 | 47 | 3.2 | 12.9 | 0.00 | 0.00 | 0.00 | 67 | 1016.6 |
| 20260510071457 | 13 | 68 | 4.8 | 12.9 | 0.00 | 0.00 | 0.00 | 66 | 1016.5 |
| 20260510071448 | 13 | 171 | 0.0 | 11.3 | 0.00 | 0.00 | 0.00 | 68 | 1016.8 |
| 20260510071433 | 13 | 66 | 0.0 | 11.3 | 0.00 | 0.00 | 0.00 | 69 | 1016.8 |
| 20260510071417 | 13 | 104 | 1.6 | 11.3 | 0.00 | 0.00 | 0.00 | 66 | 1016.7 |
| 20260510071402 | 13 | 85 | 3.2 | 11.3 | 0.00 | 0.00 | 0.00 | 66 | 1016.6 |
| 20260510071132 | 13 | 92 | 3.2 | 12.9 | 0.00 | 0.00 | 0.00 | 67 | 1016.8 |
| 20260510071116 | 13 | 48 | 4.8 | 12.9 | 0.00 | 0.00 | 0.00 | 68 | 1016.6 |
| 20260510071101 | 13 | 98 | 1.6 | 12.9 | 0.00 | 0.00 | 0.00 | 66 | 1016.9 |
| 20260510071045 | 13 | 67 | 0.0 | 12.9 | 0.00 | 0.00 | 0.00 | 68 | 1016.6 |
| 20260510071029 | 13 | 51 | 3.2 | 12.9 | 0.00 | 0.00 | 0.00 | 67 | 1016.5 |
| 20260510070540 | 13 | 103 | 4.8 | 12.9 | 0.00 | 0.00 | 0.00 | 67 | 1016.6 |
| 20260510070221 | 13 | 72 | 0.0 | 12.9 | 0.00 | 0.00 | 0.00 | 68 | 1016.7 |
| 20260510070121 | 13 | 44 | 4.8 | 12.9 | 0.00 | 0.00 | 0.00 | 67 | 1016.6 |
| 20260510070029 | 13 | 58 | 1.6 | 11.3 | 0.00 | 0.00 | 0.00 | 68 | 1016.6 |
| 20260510070021 | 13 | 58 | 1.6 | 11.3 | 0.00 | 0.00 | 0.00 | 67 | 1016.8 |
| 20260510065921 | 13 | 103 | 3.2 | 11.3 | 0.00 | 0.00 | 0.00 | 67 | 1016.8 |
| 20260510065822 | 13 | 70 | 3.2 | 11.3 | 0.00 | 0.00 | 0.00 | 68 | 1016.3 |
| 20260510065721 | 13 | 169 | 1.6 | 11.3 | 0.00 | 0.00 | 0.00 | 68 | 1016.6 |
| 20260510065621 | 13 | 83 | 1.6 | 11.3 | 0.00 | 0.00 | 0.00 | 68 | 1016.7 |
| 20260510065530 | 13 | 150 | 3.2 | 11.3 | 0.00 | 0.00 | 0.00 | 68 | 1016.7 |
| 20260510065521 | 13 | 74 | 4.8 | 11.3 | 0.00 | 0.00 | 0.00 | 68 | 1016.6 |
| 20260510065422 | 13 | 125 | 4.8 | 11.3 | 0.00 | 0.00 | 0.00 | 68 | 1016.8 |
| 20260510065357 | 12 | 74 | 0.0 | 11.3 | 0.00 | 0.00 | 0.00 | 70 | 1016.6 |
| 20260510065341 | 12 | 188 | 0.0 | 11.3 | 0.00 | 0.00 | 0.00 | 69 | 1016.6 |
| 20260510065029 | 13 | 69 | 9.7 | 12.9 | 0.00 | 0.00 | 0.00 | 68 | 1016.5 |
| 20260510065022 | 13 | 50 | 3.2 | 12.9 | 0.00 | 0.00 | 0.00 | 68 | 1016.5 |
| 20260510064920 | 13 | 64 | 3.2 | 12.9 | 0.00 | 0.00 | 0.00 | 69 | 1016.5 |
| 20260510064821 | 13 | 65 | 3.2 | 12.9 | 0.00 | 0.00 | 0.00 | 72 | 1016.6 |
| 20260510064721 | 13 | 127 | 1.6 | 12.9 | 0.00 | 0.00 | 0.00 | 71 | 1016.8 |
| 20260510064622 | 12 | 65 | 1.6 | 12.9 | 0.00 | 0.00 | 0.00 | 72 | 1016.5 |
| 20260510064529 | 12 | 175 | 1.6 | 12.9 | 0.00 | 0.00 | 0.00 | 72 | 1016.5 |
| 20260510064421 | 12 | 64 | 1.6 | 12.9 | 0.00 | 0.00 | 0.00 | 72 | 1016.6 |
| 20260510064323 | 12 | 82 | 4.8 | 12.9 | 0.00 | 0.00 | 0.00 | 72 | 1016.3 |
| 20260510064222 | 12 | 71 | 0.0 | 11.3 | 0.00 | 0.00 | 0.00 | 73 | 1016.3 |
| 20260510064123 | 12 | 102 | 0.0 | 11.3 | 0.00 | 0.00 | 0.00 | 74 | 1016.4 |
| 20260510064111 | 12 | 61 | 3.2 | 11.3 | 0.00 | 0.00 | 0.00 | 74 | 1016.4 |
| 20260510064105 | 11 | 64 | 1.6 | 12.9 | 0.00 | 0.00 | 0.00 | 78 | 1016.4 |
| 20260510064059 | 11 | 85 | 1.6 | 9.7 | 0.00 | 0.00 | 0.00 | 79 | 1016.6 |
| 20260510064042 | 12 | 64 | 1.6 | 11.3 | 0.00 | 0.00 | 0.00 | 73 | 1016.4 |
| 20260510064026 | 12 | 110 | 4.8 | 11.3 | 0.00 | 0.00 | 0.00 | 73 | 1016.5 |
| 20260510064010 | 12 | 84 | 1.6 | 11.3 | 0.00 | 0.00 | 0.00 | 74 | 1016.3 |
| 20260510063955 | 12 | 353 | 3.2 | 11.3 | 0.00 | 0.00 | 0.00 | 74 | 1016.7 |
| 20260510063939 | 12 | 59 | 3.2 | 11.3 | 0.00 | 0.00 | 0.00 | 74 | 1016.4 |
| 20260510063712 | 12 | 32 | 6.4 | 11.3 | 0.00 | 0.00 | 0.00 | 74 | 1016.5 |
| 20260510063436 | 12 | 53 | 4.8 | 11.3 | 0.00 | 0.00 | 0.00 | 76 | 1016.5 |
| 20260510063420 | 12 | 57 | 1.6 | 12.9 | 0.00 | 0.00 | 0.00 | 77 | 1016.4 |
| 20260510063142 | 11 | 153 | 0.0 | 12.9 | 0.00 | 0.00 | 0.00 | 76 | 1016.7 |
| 20260510063135 | 11 | 66 | 1.6 | 12.9 | 0.00 | 0.00 | 0.00 | 76 | 1016.4 |
| 20260510063120 | 11 | 96 | 0.0 | 12.9 | 0.00 | 0.00 | 0.00 | 77 | 1016.5 |
| 20260510063104 | 11 | 66 | 6.4 | 12.9 | 0.00 | 0.00 | 0.00 | 77 | 1016.5 |
| 20260510063048 | 11 | 55 | 6.4 | 12.9 | 0.00 | 0.00 | 0.00 | 77 | 1016.6 |
| 20260510062601 | 11 | 134 | 0.0 | 12.9 | 0.00 | 0.00 | 0.00 | 78 | 1016.5 |
| 20260510062545 | 11 | 109 | 3.2 | 12.9 | 0.00 | 0.00 | 0.00 | 77 | 1016.6 |
| 20260510062529 | 11 | 48 | 4.8 | 12.9 | 0.00 | 0.00 | 0.00 | 77 | 1016.5 |
| 20260510062512 | 11 | 87 | 1.6 | 9.7 | 0.00 | 0.00 | 0.00 | 78 | 1016.5 |
| 20260510062020 | 11 | 85 | 1.6 | 9.7 | 0.00 | 0.00 | 0.00 | 79 | 1016.5 |
| 20260510061921 | 11 | 55 | 3.2 | 9.7 | 0.00 | 0.00 | 0.00 | 79 | 1016.7 |
| 20260510061856 | 11 | 69 | 3.2 | 9.7 | 0.00 | 0.00 | 0.00 | 80 | 1016.6 |
| 20260510061840 | 11 | 54 | 1.6 | 6.4 | 0.00 | 0.00 | 0.00 | 80 | 1016.6 |
| 20260510061529 | 11 | 69 | 3.2 | 6.4 | 0.00 | 0.00 | 0.00 | 81 | 1016.7 |
| 20260510061521 | 11 | 57 | 6.4 | 6.4 | 0.00 | 0.00 | 0.00 | 81 | 1016.8 |
| 20260510061422 | 11 | 79 | 3.2 | 11.3 | 0.00 | 0.00 | 0.00 | 81 | 1016.7 |
| 20260510061321 | 11 | 80 | 0.0 | 11.3 | 0.00 | 0.00 | 0.00 | 83 | 1016.7 |
| 20260510061222 | 11 | 117 | 0.0 | 11.3 | 0.00 | 0.00 | 0.00 | 82 | 1016.8 |
| 20260510061206 | 11 | 78 | 1.6 | 11.3 | 0.00 | 0.00 | 0.00 | 82 | 1016.8 |
| 20260510061149 | 11 | 116 | 1.6 | 11.3 | 0.00 | 0.00 | 0.00 | 82 | 1016.8 |
| 20260510061142 | 11 | 174 | 0.0 | 11.3 | 0.00 | 0.00 | 0.00 | 83 | 1016.4 |
| 20260510060822 | 11 | 151 | 0.0 | 11.3 | 0.00 | 0.00 | 0.00 | 84 | 1016.7 |
| 20260510060721 | 11 | 91 | 3.2 | 11.3 | 0.00 | 0.00 | 0.00 | 83 | 1016.7 |
| 20260510060622 | 11 | 44 | 4.8 | 11.3 | 0.00 | 0.00 | 0.00 | 84 | 1016.5 |
| 20260510060529 | 11 | 91 | 1.6 | 11.3 | 0.00 | 0.00 | 0.00 | 84 | 1016.5 |
| 20260510060521 | 11 | 64 | 4.8 | 11.3 | 0.00 | 0.00 | 0.00 | 84 | 1016.6 |
| 20260510060449 | 10 | 126 | 0.0 | 6.4 | 0.00 | 0.00 | 0.00 | 87 | 1016.6 |
| 20260510060445 | 10 | 129 | 0.0 | 3.2 | 0.00 | 0.00 | 0.00 | 89 | 1016.9 |
| 20260510060440 | 10 | 63 | 1.6 | 6.4 | 0.00 | 0.00 | 0.00 | 89 | 1017.0 |
| 20260510060435 | 10 | 77 | 0.0 | 6.4 | 0.00 | 0.00 | 0.00 | 90 | 1016.6 |
| 20260510060428 | 11 | 53 | 6.4 | 11.3 | 0.00 | 0.00 | 0.00 | 84 | 1016.6 |
| 20260510060414 | 11 | 70 | 3.2 | 9.7 | 0.00 | 0.00 | 0.00 | 85 | 1016.5 |
| 20260510060359 | 11 | 61 | 1.6 | 9.7 | 0.00 | 0.00 | 0.00 | 84 | 1016.5 |
| 20260510060343 | 11 | 48 | 0.0 | 9.7 | 0.00 | 0.00 | 0.00 | 86 | 1016.7 |
| 20260510060326 | 11 | 103 | 0.0 | 9.7 | 0.00 | 0.00 | 0.00 | 86 | 1016.7 |
| 20260510060319 | 11 | 103 | 0.0 | 9.7 | 0.00 | 0.00 | 0.00 | 85 | 1016.6 |
| 20260510060042 | 10 | 89 | 0.0 | 9.7 | 0.00 | 0.00 | 0.00 | 86 | 1016.8 |
| 20260510060027 | 10 | 90 | 6.4 | 9.7 | 0.00 | 0.00 | 0.00 | 86 | 1016.6 |
| 20260510060010 | 10 | 119 | 0.0 | 6.4 | 0.00 | 0.00 | 0.00 | 87 | 1016.6 |
| 20260510055742 | 10 | 142 | 0.0 | 6.4 | 0.00 | 0.00 | 0.00 | 87 | 1016.6 |
| 20260510055726 | 11 | 73 | 3.2 | 4.8 | 0.00 | 0.00 | 0.00 | 86 | 1016.6 |
| 20260510055709 | 11 | 49 | 1.6 | 3.2 | 0.00 | 0.00 | 0.00 | 88 | 1016.7 |
| 20260510055653 | 10 | 50 | 1.6 | 3.2 | 0.00 | 0.00 | 0.00 | 89 | 1016.7 |
| 20260510055638 | 10 | 69 | 0.0 | 3.2 | 0.00 | 0.00 | 0.00 | 88 | 1016.9 |
| 20260510055409 | 10 | 118 | 0.0 | 3.2 | 0.00 | 0.00 | 0.00 | 89 | 1016.6 |
| 20260510055354 | 10 | 91 | 0.0 | 3.2 | 0.00 | 0.00 | 0.00 | 88 | 1017.0 |
| 20260510055337 | 10 | 62 | 3.2 | 6.4 | 0.00 | 0.00 | 0.00 | 89 | 1016.9 |
| 20260510055102 | 10 | 60 | 1.6 | 6.4 | 0.00 | 0.00 | 0.00 | 89 | 1017.0 |
| 20260510054835 | 10 | 101 | 0.0 | 6.4 | 0.00 | 0.00 | 0.00 | 89 | 1017.0 |
| 20260510054818 | 10 | 75 | 0.0 | 6.4 | 0.00 | 0.00 | 0.00 | 90 | 1016.8 |
| 20260510054803 | 10 | 79 | 0.0 | 6.4 | 0.00 | 0.00 | 0.00 | 90 | 1016.8 |
| 20260510054747 | 10 | 58 | 0.0 | 6.4 | 0.00 | 0.00 | 0.00 | 90 | 1016.9 |
| 20260510054258 | 10 | 77 | 0.0 | 6.4 | 0.00 | 0.00 | 0.00 | 90 | 1017.0 |
| 20260510054023 | 10 | 110 | 0.0 | 4.8 | 0.00 | 0.00 | 0.00 | 90 | 1017.1 |
| 20260510054008 | 10 | 86 | 0.0 | 4.8 | 0.00 | 0.00 | 0.00 | 91 | 1017.1 |
| 20260510053732 | 10 | 115 | 1.6 | 4.8 | 0.00 | 0.00 | 0.00 | 91 | 1017.1 |
| 20260510053422 | 10 | 72 | 0.0 | 4.8 | 0.00 | 0.00 | 0.00 | 92 | 1017.0 |
| 20260510053410 | 9 | 65 | 1.6 | 4.8 | 0.00 | 0.00 | 0.00 | 92 | 1017.1 |
| 20260510053400 | 9 | 85 | 1.6 | 4.8 | 0.00 | 0.00 | 0.00 | 91 | 1016.8 |
| 20260510053344 | 9 | 79 | 1.6 | 4.8 | 0.00 | 0.00 | 0.00 | 91 | 1017.0 |
| 20260510053327 | 9 | 62 | 3.2 | 4.8 | 0.00 | 0.00 | 0.00 | 92 | 1017.1 |
| 20260510053058 | 9 | 56 | 0.0 | 4.8 | 0.00 | 0.00 | 0.00 | 92 | 1016.9 |
| 20260510053042 | 9 | 58 | 0.0 | 4.8 | 0.00 | 0.00 | 0.00 | 92 | 1017.0 |
| 20260510053025 | 9 | 62 | 1.6 | 4.8 | 0.00 | 0.00 | 0.00 | 92 | 1017.0 |
| 20260510053008 | 9 | 116 | 0.0 | 4.8 | 0.00 | 0.00 | 0.00 | 93 | 1017.1 |
| 20260510052732 | 9 | 133 | 0.0 | 4.8 | 0.00 | 0.00 | 0.00 | 93 | 1016.9 |
| 20260510052448 | 9 | 80 | 0.0 | 4.8 | 0.00 | 0.00 | 0.00 | 93 | 1017.0 |
| 20260510052432 | 9 | 68 | 1.6 | 4.8 | 0.00 | 0.00 | 0.00 | 93 | 1017.1 |
| 20260510052416 | 9 | 57 | 1.6 | 4.8 | 0.00 | 0.00 | 0.00 | 93 | 1017.2 |
| 20260510052400 | 9 | 71 | 0.0 | 4.8 | 0.00 | 0.00 | 0.00 | 93 | 1017.0 |
| 20260510052343 | 9 | 87 | 1.6 | 4.8 | 0.00 | 0.00 | 0.00 | 94 | 1017.0 |
| 20260510052336 | 9 | 87 | 1.6 | 4.8 | 0.00 | 0.00 | 0.00 | 94 | 1017.2 |
| 20260510051841 | 8 | 113 | 0.0 | 3.2 | 0.00 | 0.00 | 0.00 | 95 | 1017.3 |
| 20260510051605 | 8 | 110 | 0.0 | 3.2 | 0.00 | 0.00 | 0.00 | 95 | 1017.1 |
| 20260510051559 | 8 | 64 | 1.6 | 3.2 | 0.00 | 0.00 | 0.00 | 95 | 1017.2 |
| 20260510051542 | 8 | 74 | 1.6 | 3.2 | 0.00 | 0.00 | 0.00 | 95 | 1017.1 |
| 20260510051220 | 8 | 74 | 1.6 | 3.2 | 0.00 | 0.00 | 0.00 | 96 | 1017.3 |
| 20260510051205 | 8 | 128 | 0.0 | 1.6 | 0.00 | 0.00 | 0.00 | 96 | 1017.4 |
| 20260510051148 | 8 | 81 | 0.0 | 1.6 | 0.00 | 0.00 | 0.00 | 96 | 1017.4 |
| 20260510051141 | 8 | 98 | 0.0 | 1.6 | 0.00 | 0.00 | 0.00 | 96 | 1017.3 |
| 20260510050822 | 8 | 104 | 0.0 | 1.6 | 0.00 | 0.00 | 0.00 | 97 | 1017.1 |
| 20260510050721 | 8 | 81 | 0.0 | 1.6 | 0.00 | 0.00 | 0.00 | 97 | 1017.3 |
| 20260510050621 | 8 | 131 | 0.0 | 1.6 | 0.00 | 0.00 | 0.00 | 98 | 1017.2 |
| 20260510050529 | 8 | 88 | 0.0 | 1.6 | 0.00 | 0.00 | 0.00 | 98 | 1017.2 |
| 20260510050521 | 8 | 118 | 0.0 | 1.6 | 0.00 | 0.00 | 0.00 | 98 | 1017.2 |
| 20260510050421 | 7 | 138 | 0.0 | 3.2 | 0.00 | 0.00 | 0.00 | 98 | 1017.4 |
| 20260510050358 | 7 | 155 | 0.0 | 3.2 | 0.00 | 0.00 | 0.00 | 98 | 1017.4 |
| 20260510050341 | 7 | 143 | 0.0 | 3.2 | 0.00 | 0.00 | 0.00 | 98 | 1017.1 |
| 20260510050029 | 7 | 122 | 0.0 | 3.2 | 0.00 | 0.00 | 0.00 | 99 | 1017.3 |
| 20260510050022 | 7 | 122 | 0.0 | 3.2 | 0.00 | 0.00 | 0.00 | 99 | 1017.2 |
| 20260510045921 | 7 | 85 | 0.0 | 3.2 | 0.00 | 0.00 | 0.00 | 99 | 1017.2 |
| 20260510045857 | 7 | 142 | 0.0 | 3.2 | 0.00 | 0.00 | 0.00 | 99 | 1017.2 |
| 20260510045841 | 7 | 122 | 0.0 | 4.8 | 0.00 | 0.00 | 0.00 | 99 | 1017.3 |
| 20260510045604 | 7 | 46 | 3.2 | 4.8 | 0.00 | 0.00 | 0.00 | 100 | 1017.2 |
| 20260510045558 | 7 | 88 | 0.0 | 4.8 | 0.00 | 0.00 | 0.00 | 100 | 1017.1 |
| 20260510045542 | 7 | 60 | 1.6 | 4.8 | 0.00 | 0.00 | 0.00 | 100 | 1017.3 |
| 20260510045253 | 6 | 130 | 0.0 | 3.2 | 0.00 | 0.00 | 0.00 | 100 | 1017.2 |
| 20260510045245 | 7 | 65 | 1.6 | 4.8 | 0.00 | 0.00 | 0.00 | 100 | 1017.1 |
| 20260510045230 | 7 | 106 | 0.0 | 4.8 | 0.00 | 0.00 | 0.00 | 100 | 1017.3 |
| 20260510045211 | 7 | 68 | 0.0 | 4.8 | 0.00 | 0.00 | 0.00 | 100 | 1017.3 |
| 20260510045204 | 7 | 72 | 0.0 | 4.8 | 0.00 | 0.00 | 0.00 | 100 | 1017.3 |
| 20260510045148 | 7 | 74 | 0.0 | 4.8 | 0.00 | 0.00 | 0.00 | 100 | 1017.1 |
| 20260510045132 | 7 | 76 | 1.6 | 4.8 | 0.00 | 0.00 | 0.00 | 100 | 1017.1 |
| 20260510045116 | 7 | 108 | 0.0 | 3.2 | 0.00 | 0.00 | 0.00 | 100 | 1017.3 |
| 20260510045100 | 6 | 69 | 1.6 | 3.2 | 0.00 | 0.00 | 0.00 | 100 | 1017.3 |
| 20260510045044 | 6 | 72 | 0.0 | 3.2 | 0.00 | 0.00 | 0.00 | 100 | 1017.3 |
| 20260510045037 | 6 | 93 | 0.0 | 3.2 | 0.00 | 0.00 | 0.00 | 100 | 1017.2 |
| 20260510044800 | 6 | 76 | 0.0 | 3.2 | 0.00 | 0.00 | 0.00 | 100 | 1017.4 |
| 20260510044524 | 6 | 73 | 0.0 | 3.2 | 0.00 | 0.00 | 0.00 | 100 | 1017.3 |
| 20260510044505 | 6 | 88 | 0.0 | 3.2 | 0.00 | 0.00 | 0.00 | 100 | 1017.3 |
| 20260510044459 | 6 | 88 | 0.0 | 3.2 | 0.00 | 0.00 | 0.00 | 100 | 1017.2 |
| 20260510044442 | 6 | 108 | 0.0 | 3.2 | 0.00 | 0.00 | 0.00 | 100 | 1017.5 |
| 20260510044425 | 6 | 98 | 0.0 | 3.2 | 0.00 | 0.00 | 0.00 | 100 | 1017.3 |
| 20260510044149 | 6 | 112 | 0.0 | 3.2 | 0.00 | 0.00 | 0.00 | 100 | 1017.2 |
| 20260510043922 | 6 | 131 | 0.0 | 3.2 | 0.00 | 0.00 | 0.00 | 100 | 1017.3 |
| 20260510043123 | 6 | 142 | 0.0 | 3.2 | 0.00 | 0.00 | 0.00 | 100 | 1017.3 |
| 20260510043023 | 6 | 131 | 0.0 | 3.2 | 0.00 | 0.00 | 0.00 | 100 | 1017.3 |
| 20260510042921 | 6 | 76 | 0.0 | 3.2 | 0.00 | 0.00 | 0.00 | 100 | 1017.3 |
| 20260510042821 | 6 | 71 | 0.0 | 3.2 | 0.00 | 0.00 | 0.00 | 100 | 1017.4 |
| 20260510042721 | 6 | 79 | 0.0 | 3.2 | 0.00 | 0.00 | 0.00 | 100 | 1017.5 |
| 20260510042621 | 6 | 79 | 1.6 | 3.2 | 0.00 | 0.00 | 0.00 | 100 | 1017.3 |
| 20260510042529 | 6 | 121 | 0.0 | 1.6 | 0.00 | 0.00 | 0.00 | 100 | 1017.3 |
| 20260510042522 | 6 | 124 | 0.0 | 1.6 | 0.00 | 0.00 | 0.00 | 100 | 1017.3 |
| 20260510042422 | 6 | 129 | 0.0 | 1.6 | 0.00 | 0.00 | 0.00 | 100 | 1017.5 |
| 20260510042321 | 6 | 141 | 0.0 | 1.6 | 0.00 | 0.00 | 0.00 | 100 | 1017.4 |
| 20260510042221 | 6 | 139 | 0.0 | 1.6 | 0.00 | 0.00 | 0.00 | 100 | 1017.2 |
| 20260510042120 | 6 | 137 | 0.0 | 1.6 | 0.00 | 0.00 | 0.00 | 100 | 1017.4 |
| 20260510042029 | 6 | 133 | 0.0 | 1.6 | 0.00 | 0.00 | 0.00 | 100 | 1017.4 |
| 20260510042021 | 6 | 133 | 0.0 | 1.6 | 0.00 | 0.00 | 0.00 | 100 | 1017.5 |
| 20260510041921 | 6 | 130 | 0.0 | 1.6 | 0.00 | 0.00 | 0.00 | 100 | 1017.5 |
| 20260510041825 | 6 | 149 | 0.0 | 1.6 | 0.00 | 0.00 | 0.00 | 100 | 1017.5 |
| 20260510041821 | 6 | 150 | 0.0 | 1.6 | 0.00 | 0.00 | 0.00 | 100 | 1017.4 |
| 20260510041805 | 6 | 151 | 0.0 | 1.6 | 0.00 | 0.00 | 0.00 | 100 | 1017.5 |
| 20260510041748 | 6 | 150 | 0.0 | 1.6 | 0.00 | 0.00 | 0.00 | 100 | 1017.5 |
| 20260510041521 | 6 | 148 | 0.0 | 0.0 | 0.00 | 0.00 | 0.00 | 100 | 1017.5 |
| 20260510041421 | 6 | 160 | 0.0 | 0.0 | 0.00 | 0.00 | 0.00 | 100 | 1017.5 |
| 20260510041321 | 6 | 160 | 0.0 | 0.0 | 0.00 | 0.00 | 0.00 | 100 | 1017.7 |
| 20260510041221 | 6 | 159 | 0.0 | 0.0 | 0.00 | 0.00 | 0.00 | 100 | 1017.3 |
| 20260510041123 | 5 | 158 | 0.0 | 0.0 | 0.00 | 0.00 | 0.00 | 100 | 1017.2 |
| 20260510041029 | 5 | 156 | 0.0 | 0.0 | 0.00 | 0.00 | 0.00 | 100 | 1017.2 |
| 20260510041022 | 5 | 156 | 0.0 | 0.0 | 0.00 | 0.00 | 0.00 | 100 | 1017.3 |
| 20260510040921 | 5 | 154 | 0.0 | 0.0 | 0.00 | 0.00 | 0.00 | 100 | 1017.5 |
| 20260510040821 | 5 | 154 | 0.0 | 0.0 | 0.00 | 0.00 | 0.00 | 100 | 1017.1 |
| 20260510040721 | 5 | 158 | 0.0 | 0.0 | 0.00 | 0.00 | 0.00 | 100 | 1017.5 |
| 20260510040621 | 5 | 162 | 0.0 | 0.0 | 0.00 | 0.00 | 0.00 | 100 | 1017.4 |
| 20260510040530 | 5 | 162 | 0.0 | 0.0 | 0.00 | 0.00 | 0.00 | 100 | 1017.4 |
| 20260510040521 | 5 | 162 | 0.0 | 0.0 | 0.00 | 0.00 | 0.00 | 100 | 1017.3 |
| 20260510040421 | 5 | 163 | 0.0 | 0.0 | 0.00 | 0.00 | 0.00 | 100 | 1017.2 |
| 20260510040321 | 5 | 164 | 0.0 | 0.0 | 0.00 | 0.00 | 0.00 | 100 | 1017.5 |
| 20260510040221 | 5 | 165 | 0.0 | 0.0 | 0.00 | 0.00 | 0.00 | 100 | 1017.2 |
| 20260510040121 | 5 | 166 | 0.0 | 0.0 | 0.00 | 0.00 | 0.00 | 100 | 1017.2 |
| 20260510040029 | 5 | 167 | 0.0 | 0.0 | 0.00 | 0.00 | 0.00 | 100 | 1017.2 |
| 20260510040022 | 5 | 167 | 0.0 | 0.0 | 0.00 | 0.00 | 0.00 | 100 | 1017.4 |
| 20260510035922 | 5 | 168 | 0.0 | 0.0 | 0.00 | 0.00 | 0.00 | 100 | 1017.2 |
| 20260510035854 | 5 | 168 | 0.0 | 0.0 | 0.00 | 0.00 | 0.00 | 100 | 1017.3 |
| 20260510035839 | 5 | 168 | 0.0 | 0.0 | 0.00 | 0.00 | 0.00 | 100 | 1017.5 |
| 20260510035824 | 5 | 169 | 0.0 | 0.0 | 0.00 | 0.00 | 0.00 | 100 | 1017.2 |
| 20260510035808 | 5 | 169 | 0.0 | 0.0 | 0.00 | 0.00 | 0.00 | 100 | 1017.2 |
| 20260510035542 | 5 | 169 | 0.0 | 0.0 | 0.00 | 0.00 | 0.00 | 100 | 1017.4 |
| 20260510035221 | 5 | 170 | 0.0 | 0.0 | 0.00 | 0.00 | 0.00 | 100 | 1017.3 |
| 20260510035121 | 5 | 170 | 0.0 | 0.0 | 0.00 | 0.00 | 0.00 | 100 | 1017.2 |
| 20260510035029 | 5 | 170 | 0.0 | 0.0 | 0.00 | 0.00 | 0.00 | 100 | 1017.2 |
| 20260510035021 | 5 | 170 | 0.0 | 0.0 | 0.00 | 0.00 | 0.00 | 100 | 1017.6 |
| 20260510034921 | 5 | 170 | 0.0 | 0.0 | 0.00 | 0.00 | 0.00 | 100 | 1017.3 |
| 20260510034822 | 5 | 170 | 0.0 | 0.0 | 0.00 | 0.00 | 0.00 | 100 | 1017.4 |
| 20260510034722 | 5 | 170 | 0.0 | 0.0 | 0.00 | 0.00 | 0.00 | 100 | 1017.4 |
| 20260510034621 | 5 | 170 | 0.0 | 0.0 | 0.00 | 0.00 | 0.00 | 100 | 1017.4 |
| 20260510034529 | 5 | 170 | 0.0 | 0.0 | 0.00 | 0.00 | 0.00 | 100 | 1017.4 |
| 20260510034521 | 5 | 170 | 0.0 | 0.0 | 0.00 | 0.00 | 0.00 | 100 | 1017.3 |
| 20260510034421 | 5 | 171 | 0.0 | 0.0 | 0.00 | 0.00 | 0.00 | 100 | 1017.3 |
| 20260510034329 | 5 | 170 | 0.0 | 0.0 | 0.00 | 0.00 | 0.00 | 100 | 1017.3 |
| 20260510034324 | 5 | 170 | 0.0 | 0.0 | 0.00 | 0.00 | 0.00 | 100 | 1017.4 |
| 20260510034308 | 5 | 170 | 0.0 | 0.0 | 0.00 | 0.00 | 0.00 | 100 | 1017.5 |
| 20260510034252 | 5 | 170 | 0.0 | 0.0 | 0.00 | 0.00 | 0.00 | 100 | 1017.3 |
| 20260510034021 | 5 | 170 | 0.0 | 0.0 | 0.00 | 0.00 | 0.00 | 100 | 1017.2 |
| 20260510033920 | 5 | 170 | 0.0 | 0.0 | 0.00 | 0.00 | 0.00 | 100 | 1017.3 |
| 20260510033821 | 4 | 171 | 0.0 | 0.0 | 0.00 | 0.00 | 0.00 | 100 | 1017.5 |
| 20260510033804 | 4 | 170 | 0.0 | 0.0 | 0.00 | 0.00 | 0.00 | 100 | 1017.5 |
| 20260510033748 | 4 | 171 | 0.0 | 0.0 | 0.00 | 0.00 | 0.00 | 100 | 1017.6 |
| 20260510033732 | 4 | 171 | 0.0 | 0.0 | 0.00 | 0.00 | 0.00 | 100 | 1017.6 |
| 20260510033456 | 4 | 171 | 0.0 | 0.0 | 0.00 | 0.00 | 0.00 | 100 | 1017.4 |
| 20260510033440 | 4 | 171 | 0.0 | 0.0 | 0.00 | 0.00 | 0.00 | 100 | 1017.5 |
| 20260510033121 | 4 | 171 | 0.0 | 0.0 | 0.00 | 0.00 | 0.00 | 100 | 1017.6 |
| 20260510033029 | 4 | 171 | 0.0 | 0.0 | 0.00 | 0.00 | 0.00 | 100 | 1017.6 |
| 20260510033021 | 4 | 171 | 0.0 | 0.0 | 0.00 | 0.00 | 0.00 | 100 | 1017.6 |
| 20260510032922 | 5 | 171 | 0.0 | 0.0 | 0.00 | 0.00 | 0.00 | 100 | 1017.5 |
| 20260510032821 | 5 | 171 | 0.0 | 0.0 | 0.00 | 0.00 | 0.00 | 100 | 1017.5 |
| 20260510032804 | 5 | 171 | 0.0 | 0.0 | 0.00 | 0.00 | 0.00 | 100 | 1017.3 |
| 20260510032749 | 5 | 171 | 0.0 | 0.0 | 0.00 | 0.00 | 0.00 | 100 | 1017.6 |
| 20260510032733 | 5 | 171 | 0.0 | 0.0 | 0.00 | 0.00 | 0.00 | 100 | 1017.6 |
| 20260510032422 | 5 | 171 | 0.0 | 0.0 | 0.00 | 0.00 | 0.00 | 100 | 1017.6 |
| 20260510032321 | 5 | 171 | 0.0 | 0.0 | 0.00 | 0.00 | 0.00 | 100 | 1017.4 |
| 20260510032221 | 5 | 171 | 0.0 | 0.0 | 0.00 | 0.00 | 0.00 | 100 | 1017.5 |
| 20260510032122 | 5 | 171 | 0.0 | 0.0 | 0.00 | 0.00 | 0.00 | 100 | 1017.6 |
| 20260510032029 | 5 | 171 | 0.0 | 0.0 | 0.00 | 0.00 | 0.00 | 100 | 1017.6 |
| 20260510032021 | 5 | 171 | 0.0 | 0.0 | 0.00 | 0.00 | 0.00 | 100 | 1017.3 |
| 20260510031921 | 5 | 171 | 0.0 | 0.0 | 0.00 | 0.00 | 0.00 | 100 | 1017.5 |
| 20260510031821 | 5 | 171 | 0.0 | 0.0 | 0.00 | 0.00 | 0.00 | 100 | 1017.6 |
| 20260510031721 | 5 | 171 | 0.0 | 0.0 | 0.00 | 0.00 | 0.00 | 100 | 1017.5 |
| 20260510031622 | 5 | 172 | 0.0 | 0.0 | 0.00 | 0.00 | 0.00 | 100 | 1017.4 |
| 20260510031529 | 5 | 171 | 0.0 | 0.0 | 0.00 | 0.00 | 0.00 | 100 | 1017.4 |
| 20260510031520 | 5 | 171 | 0.0 | 0.0 | 0.00 | 0.00 | 0.00 | 100 | 1017.5 |
| 20260510031421 | 5 | 172 | 0.0 | 0.0 | 0.00 | 0.00 | 0.00 | 100 | 1017.5 |
| 20260510031323 | 5 | 172 | 0.0 | 0.0 | 0.00 | 0.00 | 0.00 | 100 | 1017.4 |
| 20260510031220 | 5 | 172 | 0.0 | 0.0 | 0.00 | 0.00 | 0.00 | 100 | 1017.5 |
| 20260510031122 | 5 | 172 | 0.0 | 0.0 | 0.00 | 0.00 | 0.00 | 100 | 1017.5 |
| 20260510031105 | 5 | 172 | 0.0 | 0.0 | 0.00 | 0.00 | 0.00 | 100 | 1017.5 |
| 20260510031059 | 5 | 172 | 0.0 | 0.0 | 0.00 | 0.00 | 0.00 | 100 | 1017.6 |
| 20260510031042 | 5 | 172 | 0.0 | 0.0 | 0.00 | 0.00 | 0.00 | 100 | 1017.6 |
| 20260510030800 | 5 | 172 | 0.0 | 0.0 | 0.00 | 0.00 | 0.00 | 100 | 1017.7 |
| 20260510030744 | 5 | 172 | 0.0 | 0.0 | 0.00 | 0.00 | 0.00 | 100 | 1017.5 |
| 20260510030729 | 5 | 172 | 0.0 | 0.0 | 0.00 | 0.00 | 0.00 | 100 | 1017.5 |
| 20260510030722 | 5 | 172 | 0.0 | 0.0 | 0.00 | 0.00 | 0.00 | 100 | 1017.5 |
| 20260510030705 | 5 | 172 | 0.0 | 0.0 | 0.00 | 0.00 | 0.00 | 100 | 1017.4 |
| 20260510030428 | 5 | 172 | 0.0 | 0.0 | 0.00 | 0.00 | 0.00 | 100 | 1017.5 |
| 20260510030412 | 5 | 172 | 0.0 | 0.0 | 0.00 | 0.00 | 0.00 | 100 | 1017.6 |
| 20260510030354 | 5 | 172 | 0.0 | 0.0 | 0.00 | 0.00 | 0.00 | 100 | 1017.6 |
| 20260510025821 | 4 | 172 | 0.0 | 0.0 | 0.00 | 0.00 | 0.00 | 100 | 1017.7 |
| 20260510025804 | 4 | 172 | 0.0 | 0.0 | 0.00 | 0.00 | 0.00 | 100 | 1017.4 |
| 20260510025747 | 4 | 171 | 0.0 | 0.0 | 0.00 | 0.00 | 0.00 | 100 | 1017.4 |
| 20260510025731 | 4 | 172 | 0.0 | 0.0 | 0.00 | 0.00 | 0.00 | 100 | 1017.4 |
| 20260510025434 | 4 | 172 | 0.0 | 0.0 | 0.00 | 0.00 | 0.00 | 100 | 1017.5 |
| 20260510025419 | 4 | 172 | 0.0 | 0.0 | 0.00 | 0.00 | 0.00 | 100 | 1017.5 |
| 20260510025404 | 4 | 172 | 0.0 | 0.0 | 0.00 | 0.00 | 0.00 | 100 | 1017.4 |
| 20260510025120 | 4 | 172 | 0.0 | 0.0 | 0.00 | 0.00 | 0.00 | 100 | 1017.3 |
| 20260510025104 | 4 | 172 | 0.0 | 0.0 | 0.00 | 0.00 | 0.00 | 100 | 1017.4 |
| 20260510025050 | 4 | 172 | 0.0 | 0.0 | 0.00 | 0.00 | 0.00 | 100 | 1017.4 |
| 20260510025034 | 4 | 172 | 0.0 | 0.0 | 0.00 | 0.00 | 0.00 | 100 | 1017.4 |
| 20260510025018 | 4 | 172 | 0.0 | 0.0 | 0.00 | 0.00 | 0.00 | 100 | 1017.4 |
| 20260510025003 | 4 | 172 | 0.0 | 0.0 | 0.00 | 0.00 | 0.00 | 100 | 1017.4 |
| 20260510024209 | 4 | 172 | 0.0 | 0.0 | 0.00 | 0.00 | 0.00 | 100 | 1017.6 |
| 20260510024115 | 4 | 172 | 0.0 | 0.0 | 0.00 | 0.00 | 0.00 | 100 | 1017.4 |
| 20260510024058 | 4 | 172 | 0.0 | 0.0 | 0.00 | 0.00 | 0.00 | 100 | 1017.4 |
| 20260510024050 | 4 | 172 | 0.0 | 0.0 | 0.00 | 0.00 | 0.00 | 100 | 1017.5 |
| 20260510024035 | 4 | 172 | 0.0 | 0.0 | 0.00 | 0.00 | 0.00 | 100 | 1017.8 |
| 20260510023711 | 4 | 172 | 0.0 | 0.0 | 0.00 | 0.00 | 0.00 | 100 | 1017.5 |
| 20260510023608 | 4 | 172 | 0.0 | 0.0 | 0.00 | 0.00 | 0.00 | 100 | 1017.8 |
| 20260510023530 | 4 | 172 | 0.0 | 0.0 | 0.00 | 0.00 | 0.00 | 100 | 1017.8 |
| 20260510023509 | 4 | 172 | 0.0 | 0.0 | 0.00 | 0.00 | 0.00 | 100 | 1017.4 |
| 20260510023409 | 4 | 172 | 0.0 | 0.0 | 0.00 | 0.00 | 0.00 | 100 | 1017.5 |
| 20260510023343 | 4 | 172 | 0.0 | 0.0 | 0.00 | 0.00 | 0.00 | 100 | 1017.4 |
| 20260510023328 | 4 | 172 | 0.0 | 0.0 | 0.00 | 0.00 | 0.00 | 100 | 1017.4 |
| 20260510023031 | 4 | 172 | 0.0 | 0.0 | 0.00 | 0.00 | 0.00 | 100 | 1017.3 |
| 20260510023010 | 4 | 172 | 0.0 | 0.0 | 0.00 | 0.00 | 0.00 | 100 | 1017.4 |
| 20260510022910 | 4 | 172 | 0.0 | 0.0 | 0.00 | 0.00 | 0.00 | 100 | 1017.4 |
| 20260510022849 | 3 | 172 | 0.0 | 0.0 | 0.00 | 0.00 | 0.00 | 100 | 1017.4 |
| 20260510022844 | 3 | 172 | 0.0 | 0.0 | 0.00 | 0.00 | 0.00 | 100 | 1017.6 |
| 20260510022840 | 4 | 172 | 0.0 | 0.0 | 0.00 | 0.00 | 0.00 | 100 | 1017.7 |
| 20260510022832 | 3 | 172 | 0.0 | 0.0 | 0.00 | 0.00 | 0.00 | 100 | 1017.4 |
| 20260510022817 | 3 | 172 | 0.0 | 0.0 | 0.00 | 0.00 | 0.00 | 100 | 1017.7 |
| 20260510022801 | 3 | 172 | 0.0 | 0.0 | 0.00 | 0.00 | 0.00 | 100 | 1017.4 |
| 20260510022535 | 3 | 172 | 0.0 | 0.0 | 0.00 | 0.00 | 0.00 | 100 | 1017.4 |
| 20260510022518 | 3 | 172 | 0.0 | 0.0 | 0.00 | 0.00 | 0.00 | 100 | 1017.5 |
| 20260510022501 | 3 | 172 | 0.0 | 0.0 | 0.00 | 0.00 | 0.00 | 100 | 1017.5 |
| 20260510022444 | 3 | 172 | 0.0 | 0.0 | 0.00 | 0.00 | 0.00 | 100 | 1017.7 |
| 20260510022429 | 3 | 172 | 0.0 | 0.0 | 0.00 | 0.00 | 0.00 | 100 | 1017.6 |
| 20260510022200 | 3 | 172 | 0.0 | 0.0 | 0.00 | 0.00 | 0.00 | 100 | 1017.6 |
| 20260510022144 | 3 | 172 | 0.0 | 0.0 | 0.00 | 0.00 | 0.00 | 100 | 1017.6 |
| 20260510021909 | 4 | 172 | 0.0 | 0.0 | 0.00 | 0.00 | 0.00 | 100 | 1017.7 |
| 20260510021855 | 4 | 172 | 0.0 | 0.0 | 0.00 | 0.00 | 0.00 | 100 | 1017.7 |
| 20260510021629 | 4 | 172 | 0.0 | 0.0 | 0.00 | 0.00 | 0.00 | 100 | 1017.7 |
| 20260510021309 | 4 | 172 | 0.0 | 0.0 | 0.00 | 0.00 | 0.00 | 100 | 1017.6 |
| 20260510021210 | 4 | 172 | 0.0 | 0.0 | 0.00 | 0.00 | 0.00 | 100 | 1017.8 |
| 20260510021110 | 4 | 172 | 0.0 | 0.0 | 0.00 | 0.00 | 0.00 | 100 | 1017.6 |
| 20260510021054 | 4 | 172 | 0.0 | 0.0 | 0.00 | 0.00 | 0.00 | 100 | 1017.6 |
| 20260510021046 | 4 | 172 | 0.0 | 0.0 | 0.00 | 0.00 | 0.00 | 100 | 1017.8 |
| 20260510021030 | 4 | 172 | 0.0 | 0.0 | 0.00 | 0.00 | 0.00 | 100 | 1017.7 |
| 20260510020708 | 4 | 172 | 0.0 | 0.0 | 0.00 | 0.00 | 0.00 | 100 | 1017.7 |
| 20260510020609 | 4 | 172 | 0.0 | 0.0 | 0.00 | 0.00 | 0.00 | 100 | 1017.5 |
| 20260510020529 | 4 | 172 | 0.0 | 0.0 | 0.00 | 0.00 | 0.00 | 100 | 1017.5 |
| 20260510020517 | 4 | 172 | 0.0 | 0.0 | 0.00 | 0.00 | 0.00 | 100 | 1017.7 |
| 20260510020512 | 3 | 172 | 0.0 | 0.0 | 0.00 | 0.00 | 0.00 | 100 | 1017.7 |
| 20260510020501 | 3 | 172 | 0.0 | 0.0 | 0.00 | 0.00 | 0.00 | 100 | 1017.7 |
| 20260510020451 | 3 | 172 | 0.0 | 0.0 | 0.00 | 0.00 | 0.00 | 100 | 1017.5 |
| 20260510020435 | 3 | 172 | 0.0 | 0.0 | 0.00 | 0.00 | 0.00 | 100 | 1017.7 |
| 20260510020418 | 3 | 172 | 0.0 | 0.0 | 0.00 | 0.00 | 0.00 | 100 | 1017.7 |
| 20260510020402 | 3 | 172 | 0.0 | 0.0 | 0.00 | 0.00 | 0.00 | 100 | 1017.7 |
| 20260510020133 | 3 | 172 | 0.0 | 0.0 | 0.00 | 0.00 | 0.00 | 100 | 1017.6 |
| 20260510020118 | 3 | 172 | 0.0 | 0.0 | 0.00 | 0.00 | 0.00 | 100 | 1017.7 |
| 20260510015610 | 4 | 172 | 0.0 | 0.0 | 0.00 | 0.00 | 0.00 | 100 | 1017.9 |
| 20260510015602 | 4 | 172 | 0.0 | 0.0 | 0.00 | 0.00 | 0.00 | 100 | 1017.8 |
| 20260510015548 | 4 | 172 | 0.0 | 0.0 | 0.00 | 0.00 | 0.00 | 100 | 1017.8 |
| 20260510015323 | 4 | 172 | 0.0 | 0.0 | 0.00 | 0.00 | 0.00 | 100 | 1017.7 |
| 20260510015307 | 4 | 172 | 0.0 | 0.0 | 0.00 | 0.00 | 0.00 | 100 | 1017.9 |
| 20260510015251 | 4 | 172 | 0.0 | 0.0 | 0.00 | 0.00 | 0.00 | 100 | 1017.7 |
| 20260510015009 | 4 | 172 | 0.0 | 0.0 | 0.00 | 0.00 | 0.00 | 100 | 1017.7 |
| 20260510014910 | 4 | 172 | 0.0 | 0.0 | 0.00 | 0.00 | 0.00 | 100 | 1017.9 |
| 20260510014824 | 4 | 172 | 0.0 | 0.0 | 0.00 | 0.00 | 0.00 | 100 | 1017.8 |
| 20260510014819 | 4 | 172 | 0.0 | 0.0 | 0.00 | 0.00 | 0.00 | 100 | 1017.8 |
| 20260510014803 | 4 | 172 | 0.0 | 0.0 | 0.00 | 0.00 | 0.00 | 100 | 1017.8 |
| 20260510014747 | 4 | 172 | 0.0 | 0.0 | 0.00 | 0.00 | 0.00 | 100 | 1017.8 |
| 20260510014509 | 4 | 172 | 0.0 | 0.0 | 0.00 | 0.00 | 0.00 | 100 | 1017.7 |
| 20260510014408 | 4 | 172 | 0.0 | 0.0 | 0.00 | 0.00 | 0.00 | 100 | 1018.0 |
| 20260510014309 | 4 | 172 | 0.0 | 0.0 | 0.00 | 0.00 | 0.00 | 100 | 1017.8 |
| 20260510014209 | 4 | 172 | 0.0 | 0.0 | 0.00 | 0.00 | 0.00 | 100 | 1017.9 |
| 20260510014110 | 4 | 172 | 0.0 | 0.0 | 0.00 | 0.00 | 0.00 | 100 | 1017.6 |
| 20260510014029 | 4 | 172 | 0.0 | 0.0 | 0.00 | 0.00 | 0.00 | 100 | 1017.6 |
| 20260510014009 | 4 | 172 | 0.0 | 0.0 | 0.00 | 0.00 | 0.00 | 100 | 1017.8 |
| 20260510013908 | 4 | 172 | 0.0 | 0.0 | 0.00 | 0.00 | 0.00 | 100 | 1017.6 |
| 20260510013757 | 4 | 172 | 0.0 | 0.0 | 0.00 | 0.00 | 0.00 | 100 | 1017.8 |
| 20260510013738 | 4 | 172 | 0.0 | 0.0 | 0.00 | 0.00 | 0.00 | 100 | 1017.9 |
| 20260510013710 | 4 | 172 | 0.0 | 0.0 | 0.00 | 0.00 | 0.00 | 100 | 1017.8 |
| 20260510013434 | 4 | 172 | 0.0 | 0.0 | 0.00 | 0.00 | 0.00 | 100 | 1017.6 |
| 20260510013418 | 4 | 172 | 0.0 | 0.0 | 0.00 | 0.00 | 0.00 | 100 | 1017.7 |
| 20260510013127 | 4 | 172 | 0.0 | 0.0 | 0.00 | 0.00 | 0.00 | 100 | 1017.6 |
| 20260510013118 | 4 | 172 | 0.0 | 0.0 | 0.00 | 0.00 | 0.00 | 100 | 1018.0 |
| 20260510012757 | 4 | 172 | 0.0 | 0.0 | 0.00 | 0.00 | 0.00 | 100 | 1017.8 |
| 20260510012658 | 4 | 172 | 0.0 | 0.0 | 0.00 | 0.00 | 0.00 | 100 | 1017.8 |
| 20260510012529 | 4 | 172 | 0.0 | 0.0 | 0.00 | 0.00 | 0.00 | 100 | 1017.9 |
| 20260510012457 | 4 | 172 | 0.0 | 0.0 | 0.00 | 0.00 | 0.00 | 100 | 1017.9 |
| 20260510012357 | 4 | 172 | 0.0 | 0.0 | 0.00 | 0.00 | 0.00 | 100 | 1017.9 |
| 20260510012257 | 5 | 172 | 0.0 | 0.0 | 0.00 | 0.00 | 0.00 | 100 | 1018.0 |
| 20260510012158 | 5 | 172 | 0.0 | 0.0 | 0.00 | 0.00 | 0.00 | 100 | 1017.8 |
| 20260510012029 | 5 | 172 | 0.0 | 0.0 | 0.00 | 0.00 | 0.00 | 100 | 1017.7 |
| 20260510011956 | 5 | 172 | 0.0 | 0.0 | 0.00 | 0.00 | 0.00 | 100 | 1017.8 |
| 20260510011858 | 5 | 172 | 0.0 | 0.0 | 0.00 | 0.00 | 0.00 | 100 | 1017.8 |
| 20260510011757 | 5 | 172 | 0.0 | 0.0 | 0.00 | 0.00 | 0.00 | 100 | 1017.7 |
| 20260510011657 | 5 | 172 | 0.0 | 0.0 | 0.00 | 0.00 | 0.00 | 100 | 1017.8 |
| 20260510011626 | 5 | 172 | 0.0 | 0.0 | 0.00 | 0.00 | 0.00 | 100 | 1018.2 |
| 20260510011617 | 5 | 172 | 0.0 | 0.0 | 0.00 | 0.00 | 0.00 | 100 | 1017.7 |
| 20260510011259 | 5 | 172 | 0.0 | 0.0 | 0.00 | 0.00 | 0.00 | 100 | 1017.7 |
| 20260510011244 | 5 | 172 | 0.0 | 0.0 | 0.00 | 0.00 | 0.00 | 100 | 1017.9 |
| 20260510011212 | 5 | 172 | 0.0 | 0.0 | 0.00 | 0.00 | 0.00 | 100 | 1018.0 |
| 20260510010859 | 5 | 172 | 0.0 | 0.0 | 0.00 | 0.00 | 0.00 | 100 | 1017.6 |
| 20260510010757 | 5 | 172 | 0.0 | 0.0 | 0.00 | 0.00 | 0.00 | 100 | 1018.0 |
| 20260510010656 | 5 | 172 | 0.0 | 0.0 | 0.00 | 0.00 | 0.00 | 100 | 1018.0 |
| 20260510010529 | 5 | 172 | 0.0 | 0.0 | 0.00 | 0.00 | 0.00 | 100 | 1018.0 |
| 20260510010445 | 5 | 172 | 0.0 | 0.0 | 0.00 | 0.00 | 0.00 | 100 | 1017.8 |
| 20260510010345 | 5 | 172 | 0.0 | 0.0 | 0.00 | 0.00 | 0.00 | 100 | 1017.8 |
| 20260510010244 | 5 | 172 | 0.0 | 0.0 | 0.00 | 0.00 | 0.00 | 100 | 1018.0 |
| 20260510010145 | 5 | 172 | 0.0 | 0.0 | 0.00 | 0.00 | 0.00 | 100 | 1018.0 |
| 20260510010029 | 5 | 172 | 0.0 | 0.0 | 0.00 | 0.00 | 0.00 | 100 | 1018.1 |
| 20260510010013 | 5 | 172 | 0.0 | 0.0 | 0.00 | 0.00 | 0.00 | 100 | 1017.9 |
| 20260510005953 | 5 | 172 | 0.0 | 0.0 | 0.00 | 0.00 | 0.00 | 100 | 1017.9 |
| 20260510005633 | 5 | 172 | 0.0 | 0.0 | 0.00 | 0.00 | 0.00 | 100 | 1017.9 |
| 20260510005532 | 5 | 172 | 0.0 | 0.0 | 0.00 | 0.00 | 0.00 | 100 | 1017.8 |
| 20260510005433 | 5 | 172 | 0.0 | 0.0 | 0.00 | 0.00 | 0.00 | 100 | 1018.1 |
| 20260510005333 | 5 | 172 | 0.0 | 0.0 | 0.00 | 0.00 | 0.00 | 100 | 1017.9 |
| 20260510005234 | 5 | 172 | 0.0 | 0.0 | 0.00 | 0.00 | 0.00 | 100 | 1017.8 |
| 20260510005133 | 5 | 172 | 0.0 | 0.0 | 0.00 | 0.00 | 0.00 | 100 | 1017.7 |
| 20260510005030 | 5 | 172 | 0.0 | 0.0 | 0.00 | 0.00 | 0.00 | 100 | 1018.0 |
| 20260510004215 | 5 | 172 | 0.0 | 0.0 | 0.00 | 0.00 | 0.00 | 100 | 1018.1 |
| 20260510004116 | 5 | 172 | 0.0 | 0.0 | 0.00 | 0.00 | 0.00 | 100 | 1018.0 |
| 20260510004103 | 5 | 172 | 0.0 | 0.0 | 0.00 | 0.00 | 0.00 | 100 | 1018.0 |
| 20260510004051 | 5 | 172 | 0.0 | 0.0 | 0.00 | 0.00 | 0.00 | 100 | 1017.8 |
| 20260510004036 | 5 | 172 | 0.0 | 0.0 | 0.00 | 0.00 | 0.00 | 100 | 1017.7 |
| 20260510003715 | 5 | 172 | 0.0 | 0.0 | 0.00 | 0.00 | 0.00 | 100 | 1018.1 |
| 20260510003658 | 5 | 172 | 0.0 | 0.0 | 0.00 | 0.00 | 0.00 | 100 | 1018.1 |
| 20260510003647 | 5 | 172 | 0.0 | 0.0 | 0.00 | 0.00 | 0.00 | 100 | 1018.1 |
| 20260510003635 | 5 | 172 | 0.0 | 0.0 | 0.00 | 0.00 | 0.00 | 100 | 1017.9 |
| 20260510003315 | 5 | 172 | 0.0 | 0.0 | 0.00 | 0.00 | 0.00 | 100 | 1018.1 |
| 20260510003214 | 5 | 172 | 0.0 | 0.0 | 0.00 | 0.00 | 0.00 | 100 | 1018.1 |
| 20260510003115 | 5 | 172 | 0.0 | 0.0 | 0.00 | 0.00 | 0.00 | 100 | 1018.2 |
| 20260510003100 | 5 | 172 | 0.0 | 0.0 | 0.00 | 0.00 | 0.00 | 100 | 1018.2 |
| 20260510003015 | 5 | 172 | 0.0 | 0.0 | 0.00 | 0.00 | 0.00 | 100 | 1018.1 |
| 20260510002955 | 5 | 172 | 0.0 | 0.0 | 0.00 | 0.00 | 0.00 | 100 | 1018.0 |
| 20260510002939 | 5 | 172 | 0.0 | 0.0 | 0.00 | 0.00 | 0.00 | 100 | 1018.0 |
| 20260510002924 | 6 | 172 | 0.0 | 0.0 | 0.00 | 0.00 | 0.00 | 100 | 1018.0 |
| 20260510002652 | 6 | 172 | 0.0 | 0.0 | 0.00 | 0.00 | 0.00 | 100 | 1018.1 |
| 20260510002641 | 6 | 172 | 0.0 | 0.0 | 0.00 | 0.00 | 0.00 | 100 | 1018.0 |
| 20260510002624 | 6 | 172 | 0.0 | 0.0 | 0.00 | 0.00 | 0.00 | 100 | 1018.1 |
| 20260510002607 | 6 | 172 | 0.0 | 0.0 | 0.00 | 0.00 | 0.00 | 100 | 1018.2 |
| 20260510002332 | 6 | 172 | 0.0 | 0.0 | 0.00 | 0.00 | 0.00 | 100 | 1018.2 |
| 20260510002319 | 6 | 172 | 0.0 | 0.0 | 0.00 | 0.00 | 0.00 | 100 | 1018.2 |
| 20260510002255 | 6 | 171 | 0.0 | 0.0 | 0.00 | 0.00 | 0.00 | 100 | 1018.2 |
| 20260510002239 | 6 | 171 | 0.0 | 0.0 | 0.00 | 0.00 | 0.00 | 100 | 1018.1 |
| 20260510002003 | 6 | 172 | 0.0 | 0.0 | 0.00 | 0.00 | 0.00 | 100 | 1018.2 |
| 20260510001725 | 6 | 172 | 0.0 | 0.0 | 0.00 | 0.00 | 0.00 | 100 | 1018.4 |
| 20260510001714 | 6 | 172 | 0.0 | 0.0 | 0.00 | 0.00 | 0.00 | 100 | 1018.2 |
| 20260510001658 | 6 | 172 | 0.0 | 0.0 | 0.00 | 0.00 | 0.00 | 100 | 1018.3 |
| 20260510001125 | 6 | 172 | 0.0 | 0.0 | 0.00 | 0.00 | 0.00 | 100 | 1018.2 |
| 20260510001111 | 6 | 172 | 0.0 | 0.0 | 0.00 | 0.00 | 0.00 | 100 | 1018.2 |
| 20260510001015 | 6 | 172 | 0.0 | 0.0 | 0.00 | 0.00 | 0.00 | 100 | 1018.1 |
| 20260510000916 | 6 | 172 | 0.0 | 0.0 | 0.00 | 0.00 | 0.00 | 100 | 1018.2 |
| 20260510000848 | 6 | 172 | 0.0 | 0.0 | 0.00 | 0.00 | 0.00 | 100 | 1018.1 |
| 20260510000832 | 6 | 172 | 0.0 | 0.0 | 0.00 | 0.00 | 0.00 | 100 | 1018.1 |
| 20260510000816 | 6 | 172 | 0.0 | 0.0 | 0.00 | 0.00 | 0.00 | 100 | 1018.2 |
| 20260510000804 | 6 | 172 | 0.0 | 0.0 | 0.00 | 0.00 | 0.00 | 100 | 1018.2 |
| 20260510000754 | 6 | 172 | 0.0 | 0.0 | 0.00 | 0.00 | 0.00 | 100 | 1018.1 |
| 20260510000215 | 6 | 172 | 0.0 | 0.0 | 0.00 | 0.00 | 0.00 | 100 | 1018.3 |
| 20260510000116 | 6 | 172 | 0.0 | 0.0 | 0.00 | 0.00 | 0.00 | 100 | 1018.2 |
| 20260510000052 | 6 | 172 | 0.0 | 0.0 | 0.00 | 0.00 | 0.00 | 100 | 1018.3 |
| 20260510000036 | 5 | 172 | 0.0 | 0.0 | 0.00 | 0.00 | 0.00 | 100 | 1018.3 |
| 20260509235715 | 5 | 172 | 0.0 | 0.0 | 0.00 | 0.00 | 0.00 | 100 | 1018.3 |
| 20260509235616 | 5 | 172 | 0.0 | 0.0 | 0.00 | 0.00 | 0.00 | 100 | 1018.5 |
| 20260509235559 | 5 | 172 | 0.0 | 0.0 | 0.00 | 0.00 | 0.00 | 100 | 1018.5 |
| 20260509235516 | 5 | 172 | 0.0 | 0.0 | 0.00 | 0.00 | 0.00 | 100 | 1018.4 |
| 20260509235416 | 5 | 172 | 0.0 | 0.0 | 0.00 | 0.00 | 0.00 | 100 | 1018.1 |
| 20260509235316 | 5 | 172 | 0.0 | 0.0 | 0.00 | 0.00 | 0.00 | 100 | 1018.3 |
| 20260509235215 | 5 | 172 | 0.0 | 0.0 | 0.00 | 0.00 | 0.00 | 100 | 1018.2 |
| 20260509235115 | 5 | 172 | 0.0 | 0.0 | 0.00 | 0.00 | 0.00 | 100 | 1018.4 |
| 20260509235100 | 5 | 172 | 0.0 | 0.0 | 0.00 | 0.00 | 0.00 | 100 | 1018.4 |
| 20260509235017 | 5 | 172 | 0.0 | 0.0 | 0.00 | 0.00 | 0.00 | 100 | 1018.3 |
| 20260509234915 | 5 | 172 | 0.0 | 0.0 | 0.00 | 0.00 | 0.00 | 100 | 1018.3 |
| 20260509234816 | 5 | 172 | 0.0 | 0.0 | 0.00 | 0.00 | 0.00 | 100 | 1018.3 |
| 20260509234715 | 5 | 172 | 0.0 | 0.0 | 0.00 | 0.00 | 0.00 | 100 | 1018.3 |
| 20260509234616 | 5 | 172 | 0.0 | 0.0 | 0.00 | 0.00 | 0.00 | 100 | 1018.3 |
| 20260509234559 | 5 | 172 | 0.0 | 0.0 | 0.00 | 0.00 | 0.00 | 100 | 1018.3 |
| 20260509234515 | 5 | 172 | 0.0 | 0.0 | 0.00 | 0.00 | 0.00 | 100 | 1018.5 |
| 20260509234453 | 5 | 172 | 0.0 | 0.0 | 0.00 | 0.00 | 0.00 | 100 | 1018.3 |
| 20260509234437 | 5 | 172 | 0.0 | 0.0 | 0.00 | 0.00 | 0.00 | 100 | 1018.3 |
| 20260509234421 | 5 | 172 | 0.0 | 0.0 | 0.00 | 0.00 | 0.00 | 100 | 1018.5 |
| 20260509234406 | 5 | 172 | 0.0 | 0.0 | 0.00 | 0.00 | 0.00 | 100 | 1018.3 |
| 20260509234351 | 5 | 172 | 0.0 | 0.0 | 0.00 | 0.00 | 0.00 | 100 | 1018.3 |
| 20260509233837 | 6 | 172 | 0.0 | 0.0 | 0.00 | 0.00 | 0.00 | 100 | 1018.4 |
| 20260509233830 | 5 | 172 | 0.0 | 0.0 | 0.00 | 0.00 | 0.00 | 100 | 1018.3 |
| 20260509233815 | 5 | 172 | 0.0 | 0.0 | 0.00 | 0.00 | 0.00 | 100 | 1018.3 |
| 20260509233759 | 5 | 172 | 0.0 | 0.0 | 0.00 | 0.00 | 0.00 | 100 | 1018.3 |
| 20260509233748 | 5 | 172 | 0.0 | 0.0 | 0.00 | 0.00 | 0.00 | 100 | 1018.3 |
| 20260509233737 | 5 | 172 | 0.0 | 0.0 | 0.00 | 0.00 | 0.00 | 100 | 1018.2 |
| 20260509233721 | 5 | 172 | 0.0 | 0.0 | 0.00 | 0.00 | 0.00 | 100 | 1018.4 |
| 20260509233445 | 5 | 172 | 0.0 | 0.0 | 0.00 | 0.00 | 0.00 | 100 | 1018.2 |
| 20260509233428 | 6 | 172 | 0.0 | 0.0 | 0.00 | 0.00 | 0.00 | 100 | 1018.4 |
| 20260509233415 | 6 | 172 | 0.0 | 0.0 | 0.00 | 0.00 | 0.00 | 100 | 1018.4 |
| 20260509233143 | 6 | 172 | 0.0 | 0.0 | 0.00 | 0.00 | 0.00 | 100 | 1018.4 |
| 20260509233128 | 6 | 172 | 0.0 | 0.0 | 0.00 | 0.00 | 0.00 | 100 | 1018.3 |
| 20260509232636 | 6 | 172 | 0.0 | 0.0 | 0.00 | 0.00 | 0.00 | 100 | 1018.4 |
| 20260509232626 | 6 | 172 | 0.0 | 0.0 | 0.00 | 0.00 | 0.00 | 100 | 1018.5 |
| 20260509232610 | 6 | 172 | 0.0 | 0.0 | 0.00 | 0.00 | 0.00 | 100 | 1018.3 |
| 20260509232553 | 6 | 172 | 0.0 | 0.0 | 0.00 | 0.00 | 0.00 | 100 | 1018.4 |
| 20260509232538 | 6 | 172 | 0.0 | 0.0 | 0.00 | 0.00 | 0.00 | 100 | 1018.5 |
| 20260509232016 | 6 | 172 | 0.0 | 0.0 | 0.00 | 0.00 | 0.00 | 100 | 1018.4 |
| 20260509231915 | 6 | 172 | 0.0 | 0.0 | 0.00 | 0.00 | 0.00 | 100 | 1018.3 |
| 20260509231815 | 6 | 172 | 0.0 | 0.0 | 0.00 | 0.00 | 0.00 | 100 | 1018.5 |
| 20260509231716 | 6 | 172 | 0.0 | 0.0 | 0.00 | 0.00 | 0.00 | 100 | 1018.3 |
| 20260509231657 | 6 | 172 | 0.0 | 0.0 | 0.00 | 0.00 | 0.00 | 100 | 1018.5 |
| 20260509231645 | 6 | 172 | 0.0 | 0.0 | 0.00 | 0.00 | 0.00 | 100 | 1018.5 |
| 20260509231635 | 6 | 172 | 0.0 | 0.0 | 0.00 | 0.00 | 0.00 | 100 | 1018.3 |
| 20260509231351 | 6 | 172 | 0.0 | 0.0 | 0.00 | 0.00 | 0.00 | 100 | 1018.2 |
| 20260509231336 | 6 | 172 | 0.0 | 0.0 | 0.00 | 0.00 | 0.00 | 100 | 1018.4 |
| 20260509231100 | 6 | 172 | 0.0 | 0.0 | 0.00 | 0.00 | 0.00 | 100 | 1018.5 |
| 20260509231015 | 6 | 172 | 0.0 | 0.0 | 0.00 | 0.00 | 0.00 | 100 | 1018.7 |
| 20260509230950 | 6 | 172 | 0.0 | 0.0 | 0.00 | 0.00 | 0.00 | 100 | 1018.4 |
| 20260509230934 | 6 | 172 | 0.0 | 0.0 | 0.00 | 0.00 | 0.00 | 100 | 1018.5 |
| 20260509230615 | 6 | 172 | 0.0 | 0.0 | 0.00 | 0.00 | 0.00 | 100 | 1018.7 |
| 20260509230537 | 6 | 172 | 0.0 | 0.0 | 0.00 | 0.00 | 0.00 | 100 | 1018.7 |
| 20260509230521 | 6 | 172 | 0.0 | 0.0 | 0.00 | 0.00 | 0.00 | 100 | 1018.8 |
| 20260509230506 | 6 | 172 | 0.0 | 0.0 | 0.00 | 0.00 | 0.00 | 100 | 1018.7 |
| 20260509230230 | 6 | 172 | 0.0 | 0.0 | 0.00 | 0.00 | 0.00 | 100 | 1018.4 |
| 20260509230219 | 6 | 172 | 0.0 | 0.0 | 0.00 | 0.00 | 0.00 | 100 | 1018.4 |
| 20260509230208 | 6 | 172 | 0.0 | 0.0 | 0.00 | 0.00 | 0.00 | 100 | 1018.7 |
| 20260509230154 | 6 | 172 | 0.0 | 0.0 | 0.00 | 0.00 | 0.00 | 100 | 1018.7 |
| 20260509225917 | 6 | 172 | 0.0 | 0.0 | 0.00 | 0.00 | 0.00 | 100 | 1018.5 |
| 20260509225646 | 6 | 172 | 0.0 | 0.0 | 0.00 | 0.00 | 0.00 | 100 | 1018.8 |
| 20260509225636 | 6 | 172 | 0.0 | 0.0 | 0.00 | 0.00 | 0.00 | 100 | 1018.7 |
| 20260509225353 | 6 | 171 | 0.0 | 0.0 | 0.00 | 0.00 | 0.00 | 100 | 1018.7 |
| 20260509225343 | 6 | 172 | 0.0 | 0.0 | 0.00 | 0.00 | 0.00 | 100 | 1018.8 |
| 20260509225327 | 6 | 172 | 0.0 | 0.0 | 0.00 | 0.00 | 0.00 | 100 | 1018.5 |
| 20260509225312 | 6 | 172 | 0.0 | 0.0 | 0.00 | 0.00 | 0.00 | 100 | 1018.8 |
| 20260509225300 | 6 | 172 | 0.0 | 0.0 | 0.00 | 0.00 | 0.00 | 100 | 1018.8 |
| 20260509225247 | 6 | 172 | 0.0 | 0.0 | 0.00 | 0.00 | 0.00 | 100 | 1018.9 |
| 20260509225231 | 6 | 172 | 0.0 | 0.0 | 0.00 | 0.00 | 0.00 | 100 | 1018.7 |
| 20260509225215 | 6 | 172 | 0.0 | 0.0 | 0.00 | 0.00 | 0.00 | 100 | 1018.7 |
| 20260509225200 | 6 | 172 | 0.0 | 0.0 | 0.00 | 0.00 | 0.00 | 100 | 1018.8 |
| 20260509224928 | 6 | 172 | 0.0 | 0.0 | 0.00 | 0.00 | 0.00 | 100 | 1018.7 |
| 20260509224918 | 6 | 172 | 0.0 | 0.0 | 0.00 | 0.00 | 0.00 | 100 | 1018.9 |
| 20260509224902 | 6 | 172 | 0.0 | 0.0 | 0.00 | 0.00 | 0.00 | 100 | 1018.7 |
| 20260509224845 | 6 | 171 | 0.0 | 0.0 | 0.00 | 0.00 | 0.00 | 100 | 1018.9 |
| 20260509224829 | 6 | 171 | 0.0 | 0.0 | 0.00 | 0.00 | 0.00 | 100 | 1019.0 |
| 20260509223815 | 6 | 171 | 0.0 | 0.0 | 0.00 | 0.00 | 0.00 | 100 | 1018.5 |
| 20260509223716 | 6 | 171 | 0.0 | 0.0 | 0.00 | 0.00 | 0.00 | 100 | 1018.7 |
| 20260509223626 | 6 | 171 | 0.0 | 0.0 | 0.00 | 0.00 | 0.00 | 100 | 1018.8 |
| 20260509223614 | 6 | 171 | 0.0 | 0.0 | 0.00 | 0.00 | 0.00 | 100 | 1018.8 |
| 20260509223554 | 6 | 173 | 0.0 | 0.0 | 0.00 | 0.00 | 0.00 | 99 | 1019.0 |
| 20260509223545 | 6 | 172 | 0.0 | 0.0 | 0.00 | 0.00 | 0.00 | 100 | 1018.7 |
| 20260509223530 | 6 | 172 | 0.0 | 0.0 | 0.00 | 0.00 | 0.00 | 100 | 1018.9 |
| 20260509223514 | 6 | 172 | 0.0 | 0.0 | 0.00 | 0.00 | 0.00 | 100 | 1018.5 |
| 20260509223253 | 6 | 173 | 0.0 | 0.0 | 0.00 | 0.00 | 0.00 | 99 | 1018.9 |
| 20260509223243 | 6 | 172 | 0.0 | 0.0 | 0.00 | 0.00 | 0.00 | 100 | 1018.8 |
| 20260509223227 | 6 | 173 | 0.0 | 0.0 | 0.00 | 0.00 | 0.00 | 100 | 1018.9 |
| 20260509223216 | 6 | 173 | 0.0 | 0.0 | 0.00 | 0.00 | 0.00 | 100 | 1018.9 |
| 20260509223203 | 6 | 173 | 0.0 | 0.0 | 0.00 | 0.00 | 0.00 | 100 | 1018.8 |
| 20260509223148 | 6 | 173 | 0.0 | 0.0 | 0.00 | 0.00 | 0.00 | 100 | 1018.5 |
| 20260509223133 | 6 | 173 | 0.0 | 0.0 | 0.00 | 0.00 | 0.00 | 100 | 1018.5 |
| 20260509222856 | 6 | 173 | 0.0 | 0.0 | 0.00 | 0.00 | 0.00 | 99 | 1019.0 |
| 20260509222630 | 6 | 173 | 0.0 | 0.0 | 0.00 | 0.00 | 0.00 | 99 | 1018.9 |
| 20260509222613 | 6 | 173 | 0.0 | 0.0 | 0.00 | 0.00 | 0.00 | 99 | 1018.9 |
| 20260509222557 | 6 | 173 | 0.0 | 0.0 | 0.00 | 0.00 | 0.00 | 99 | 1018.8 |
| 20260509222542 | 6 | 173 | 0.0 | 0.0 | 0.00 | 0.00 | 0.00 | 99 | 1018.9 |
| 20260509222525 | 6 | 173 | 0.0 | 0.0 | 0.00 | 0.00 | 0.00 | 99 | 1018.9 |
| 20260509222036 | 6 | 173 | 0.0 | 0.0 | 0.00 | 0.00 | 0.00 | 99 | 1018.8 |
| 20260509222018 | 6 | 173 | 0.0 | 0.0 | 0.00 | 0.00 | 0.00 | 99 | 1018.7 |
| 20260509222002 | 6 | 173 | 0.0 | 0.0 | 0.00 | 0.00 | 0.00 | 99 | 1018.8 |
| 20260509221730 | 6 | 173 | 0.0 | 0.0 | 0.00 | 0.00 | 0.00 | 99 | 1019.0 |
| 20260509221452 | 6 | 173 | 0.0 | 0.0 | 0.00 | 0.00 | 0.00 | 99 | 1018.8 |
| 20260509221435 | 6 | 173 | 0.0 | 0.0 | 0.00 | 0.00 | 0.00 | 99 | 1019.0 |
| 20260509221128 | 6 | 173 | 0.0 | 0.0 | 0.00 | 0.00 | 0.00 | 99 | 1019.1 |
| 20260509221117 | 6 | 173 | 0.0 | 0.0 | 0.00 | 0.00 | 0.00 | 99 | 1019.1 |
| 20260509221051 | 6 | 173 | 0.0 | 0.0 | 0.00 | 0.00 | 0.00 | 99 | 1018.9 |
| 20260509221035 | 6 | 173 | 0.0 | 0.0 | 0.00 | 0.00 | 0.00 | 99 | 1018.9 |
| 20260509220715 | 6 | 173 | 0.0 | 0.0 | 0.00 | 0.00 | 0.00 | 99 | 1019.0 |
| 20260509220617 | 7 | 173 | 0.0 | 0.0 | 0.00 | 0.00 | 0.00 | 99 | 1018.9 |
| 20260509220600 | 7 | 173 | 0.0 | 0.0 | 0.00 | 0.00 | 0.00 | 99 | 1018.9 |
| 20260509220515 | 7 | 173 | 0.0 | 0.0 | 0.00 | 0.00 | 0.00 | 99 | 1018.9 |
| 20260509220415 | 7 | 173 | 0.0 | 0.0 | 0.00 | 0.00 | 0.00 | 99 | 1019.2 |
| 20260509220315 | 7 | 173 | 0.0 | 0.0 | 0.00 | 0.00 | 0.00 | 99 | 1019.0 |
| 20260509220215 | 7 | 173 | 0.0 | 0.0 | 0.00 | 0.00 | 0.00 | 99 | 1018.9 |
| 20260509220123 | 7 | 173 | 0.0 | 0.0 | 0.00 | 0.00 | 0.00 | 99 | 1019.0 |
| 20260509220112 | 7 | 173 | 0.0 | 0.0 | 0.00 | 0.00 | 0.00 | 99 | 1019.0 |
| 20260509220015 | 7 | 173 | 0.0 | 0.0 | 0.00 | 0.00 | 0.00 | 99 | 1018.8 |
| 20260509215915 | 7 | 173 | 0.0 | 0.0 | 0.00 | 0.00 | 0.00 | 99 | 1019.1 |
| 20260509215816 | 6 | 173 | 0.0 | 0.0 | 0.00 | 0.00 | 0.00 | 99 | 1019.0 |
| 20260509215714 | 6 | 173 | 0.0 | 0.0 | 0.00 | 0.00 | 0.00 | 99 | 1018.9 |
| 20260509215615 | 6 | 173 | 0.0 | 0.0 | 0.00 | 0.00 | 0.00 | 99 | 1019.1 |
| 20260509215559 | 6 | 173 | 0.0 | 0.0 | 0.00 | 0.00 | 0.00 | 99 | 1019.1 |
| 20260509215514 | 6 | 173 | 0.0 | 0.0 | 0.00 | 0.00 | 0.00 | 99 | 1019.1 |
| 20260509215415 | 6 | 173 | 0.0 | 0.0 | 0.00 | 0.00 | 0.00 | 99 | 1019.2 |
| 20260509215315 | 6 | 173 | 0.0 | 0.0 | 0.00 | 0.00 | 0.00 | 99 | 1019.1 |
| 20260509215215 | 7 | 173 | 0.0 | 0.0 | 0.00 | 0.00 | 0.00 | 99 | 1019.0 |
| 20260509215115 | 7 | 173 | 0.0 | 0.0 | 0.00 | 0.00 | 0.00 | 99 | 1019.1 |
| 20260509215100 | 7 | 173 | 0.0 | 0.0 | 0.00 | 0.00 | 0.00 | 99 | 1019.1 |
| 20260509215016 | 7 | 173 | 0.0 | 0.0 | 0.00 | 0.00 | 0.00 | 99 | 1019.1 |
| 20260509214915 | 7 | 173 | 0.0 | 0.0 | 0.00 | 0.00 | 0.00 | 99 | 1019.1 |
| 20260509214816 | 7 | 173 | 0.0 | 0.0 | 0.00 | 0.00 | 0.00 | 99 | 1019.0 |
| 20260509214716 | 7 | 173 | 0.0 | 0.0 | 0.00 | 0.00 | 0.00 | 99 | 1019.1 |
| 20260509214615 | 7 | 173 | 0.0 | 0.0 | 0.00 | 0.00 | 0.00 | 99 | 1019.3 |
| 20260509214559 | 7 | 173 | 0.0 | 0.0 | 0.00 | 0.00 | 0.00 | 99 | 1019.3 |
| 20260509214515 | 7 | 172 | 0.0 | 0.0 | 0.00 | 0.00 | 0.00 | 99 | 1019.3 |
| 20260509214453 | 7 | 173 | 0.0 | 0.0 | 0.00 | 0.00 | 0.00 | 98 | 1019.1 |
| 20260509214436 | 7 | 173 | 0.0 | 0.0 | 0.00 | 0.00 | 0.00 | 98 | 1018.9 |
| 20260509214116 | 7 | 172 | 0.0 | 0.0 | 0.00 | 0.00 | 0.00 | 98 | 1019.1 |
| 20260509214100 | 7 | 172 | 0.0 | 0.0 | 0.00 | 0.00 | 0.00 | 98 | 1019.1 |
| 20260509214015 | 7 | 172 | 0.0 | 0.0 | 0.00 | 0.00 | 0.00 | 98 | 1019.0 |
| 20260509213915 | 7 | 172 | 0.0 | 0.0 | 0.00 | 0.00 | 0.00 | 98 | 1018.9 |
| 20260509213815 | 7 | 172 | 0.0 | 0.0 | 0.00 | 0.00 | 0.00 | 98 | 1019.1 |
| 20260509213715 | 7 | 172 | 0.0 | 0.0 | 0.00 | 0.00 | 0.00 | 98 | 1019.0 |
| 20260509213615 | 7 | 172 | 0.0 | 0.0 | 0.00 | 0.00 | 0.00 | 98 | 1019.1 |
| 20260509213601 | 7 | 172 | 0.0 | 0.0 | 0.00 | 0.00 | 0.00 | 98 | 1019.1 |
| 20260509213551 | 7 | 172 | 0.0 | 0.0 | 0.00 | 0.00 | 0.00 | 98 | 1019.0 |
| 20260509213534 | 7 | 172 | 0.0 | 0.0 | 0.00 | 0.00 | 0.00 | 98 | 1018.9 |
| 20260509213215 | 7 | 172 | 0.0 | 0.0 | 0.00 | 0.00 | 0.00 | 97 | 1019.0 |
| 20260509213116 | 7 | 173 | 0.0 | 0.0 | 0.00 | 0.00 | 0.00 | 97 | 1019.1 |
| 20260509213059 | 7 | 173 | 0.0 | 0.0 | 0.00 | 0.00 | 0.00 | 97 | 1019.1 |
| 20260509213015 | 7 | 173 | 0.0 | 0.0 | 0.00 | 0.00 | 0.00 | 97 | 1019.1 |
| 20260509212915 | 7 | 173 | 0.0 | 0.0 | 0.00 | 0.00 | 0.00 | 97 | 1019.0 |
| 20260509212816 | 7 | 173 | 0.0 | 0.0 | 0.00 | 0.00 | 0.00 | 97 | 1019.2 |
| 20260509212758 | 7 | 173 | 0.0 | 0.0 | 0.00 | 0.00 | 0.00 | 97 | 1019.0 |
| 20260509212742 | 7 | 173 | 0.0 | 0.0 | 0.00 | 0.00 | 0.00 | 97 | 1018.9 |
| 20260509212730 | 7 | 173 | 0.0 | 0.0 | 0.00 | 0.00 | 0.00 | 97 | 1018.9 |
| 20260509212416 | 7 | 173 | 0.0 | 0.0 | 0.00 | 0.00 | 0.00 | 97 | 1019.0 |
| 20260509212315 | 7 | 173 | 0.0 | 0.0 | 0.00 | 0.00 | 0.00 | 97 | 1019.1 |
| 20260509212215 | 7 | 173 | 0.0 | 0.0 | 0.00 | 0.00 | 0.00 | 97 | 1018.8 |
| 20260509212115 | 7 | 173 | 0.0 | 0.0 | 0.00 | 0.00 | 0.00 | 96 | 1019.0 |
| 20260509212052 | 7 | 173 | 0.0 | 0.0 | 0.00 | 0.00 | 0.00 | 96 | 1019.0 |
| 20260509212007 | 7 | 173 | 0.0 | 0.0 | 0.00 | 0.00 | 0.00 | 96 | 1019.1 |
| 20260509211939 | 7 | 173 | 0.0 | 0.0 | 0.00 | 0.00 | 0.00 | 96 | 1019.0 |
| 20260509211931 | 7 | 173 | 0.0 | 0.0 | 0.00 | 0.00 | 0.00 | 96 | 1019.1 |
| 20260509211913 | 7 | 173 | 0.0 | 0.0 | 0.00 | 0.00 | 0.00 | 96 | 1019.2 |
| 20260509211857 | 7 | 173 | 0.0 | 0.0 | 0.00 | 0.00 | 0.00 | 96 | 1019.1 |
| 20260509211830 | 7 | 173 | 0.0 | 0.0 | 0.00 | 0.00 | 0.00 | 96 | 1019.1 |
| 20260509211820 | 7 | 173 | 0.0 | 0.0 | 0.00 | 0.00 | 0.00 | 96 | 1019.1 |
| 20260509211323 | 7 | 173 | 0.0 | 0.0 | 0.00 | 0.00 | 0.00 | 96 | 1019.1 |
| 20260509211307 | 7 | 173 | 0.0 | 0.0 | 0.00 | 0.00 | 0.00 | 96 | 1019.0 |
| 20260509211005 | 7 | 172 | 0.0 | 0.0 | 0.00 | 0.00 | 0.00 | 96 | 1019.1 |
| 20260509210905 | 7 | 172 | 0.0 | 0.0 | 0.00 | 0.00 | 0.00 | 96 | 1018.9 |
| 20260509210840 | 7 | 172 | 0.0 | 0.0 | 0.00 | 0.00 | 0.00 | 95 | 1019.3 |
| 20260509210831 | 7 | 172 | 0.0 | 0.0 | 0.00 | 0.00 | 0.00 | 96 | 1018.9 |
| 20260509210815 | 7 | 172 | 0.0 | 0.0 | 0.00 | 0.00 | 0.00 | 96 | 1019.1 |
| 20260509210746 | 7 | 172 | 0.0 | 0.0 | 0.00 | 0.00 | 0.00 | 96 | 1019.1 |
| 20260509210518 | 7 | 172 | 0.0 | 0.0 | 0.00 | 0.00 | 0.00 | 95 | 1019.2 |
| 20260509210501 | 7 | 172 | 0.0 | 0.0 | 0.00 | 0.00 | 0.00 | 95 | 1019.2 |
| 20260509210446 | 7 | 172 | 0.0 | 0.0 | 0.00 | 0.00 | 0.00 | 95 | 1019.2 |
| 20260509210429 | 7 | 172 | 0.0 | 0.0 | 0.00 | 0.00 | 0.00 | 95 | 1019.3 |
| 20260509210200 | 7 | 172 | 0.0 | 0.0 | 0.00 | 0.00 | 0.00 | 95 | 1019.1 |
| 20260509205925 | 8 | 172 | 0.0 | 0.0 | 0.00 | 0.00 | 0.00 | 94 | 1018.9 |
| 20260509205605 | 8 | 173 | 0.0 | 0.0 | 0.00 | 0.00 | 0.00 | 94 | 1019.1 |
| 20260509205550 | 8 | 172 | 0.0 | 0.0 | 0.00 | 0.00 | 0.00 | 94 | 1019.1 |
| 20260509205504 | 8 | 172 | 0.0 | 0.0 | 0.00 | 0.00 | 0.00 | 94 | 1019.1 |
| 20260509205443 | 8 | 172 | 0.0 | 0.0 | 0.00 | 0.00 | 0.00 | 94 | 1019.1 |
| 20260509205426 | 8 | 172 | 0.0 | 0.0 | 0.00 | 0.00 | 0.00 | 94 | 1019.1 |
| 20260509205137 | 8 | 172 | 0.0 | 0.0 | 0.00 | 0.00 | 0.00 | 94 | 1019.2 |
| 20260509205125 | 8 | 172 | 0.0 | 0.0 | 0.00 | 0.00 | 0.00 | 94 | 1019.1 |
| 20260509204805 | 8 | 172 | 0.0 | 0.0 | 0.00 | 0.00 | 0.00 | 94 | 1019.2 |
| 20260509204706 | 8 | 172 | 0.0 | 0.0 | 0.00 | 0.00 | 0.00 | 94 | 1019.4 |
| 20260509204614 | 8 | 172 | 0.0 | 0.0 | 0.00 | 0.00 | 0.00 | 94 | 1019.3 |
| 20260509204555 | 8 | 172 | 0.0 | 0.0 | 0.00 | 0.00 | 0.00 | 94 | 1019.6 |
| 20260509204545 | 8 | 172 | 0.0 | 0.0 | 0.00 | 0.00 | 0.00 | 94 | 1019.3 |
| 20260509204527 | 8 | 172 | 0.0 | 0.0 | 0.00 | 0.00 | 0.00 | 94 | 1019.3 |
| 20260509204511 | 8 | 172 | 0.0 | 0.0 | 0.00 | 0.00 | 0.00 | 94 | 1019.2 |
| 20260509204455 | 8 | 172 | 0.0 | 0.0 | 0.00 | 0.00 | 0.00 | 94 | 1019.3 |
| 20260509204440 | 8 | 172 | 0.0 | 0.0 | 0.00 | 0.00 | 0.00 | 94 | 1019.3 |
| 20260509203941 | 8 | 172 | 0.0 | 0.0 | 0.00 | 0.00 | 0.00 | 94 | 1019.1 |
| 20260509203925 | 8 | 172 | 0.0 | 0.0 | 0.00 | 0.00 | 0.00 | 94 | 1019.0 |
| 20260509203549 | 8 | 172 | 0.0 | 0.0 | 0.00 | 0.00 | 0.00 | 94 | 1019.4 |
| 20260509203506 | 8 | 172 | 0.0 | 0.0 | 0.00 | 0.00 | 0.00 | 93 | 1019.2 |
| 20260509203411 | 8 | 172 | 0.0 | 0.0 | 0.00 | 0.00 | 0.00 | 93 | 1019.1 |
| 20260509203356 | 8 | 172 | 0.0 | 0.0 | 0.00 | 0.00 | 0.00 | 93 | 1019.4 |
| 20260509203340 | 8 | 172 | 0.0 | 0.0 | 0.00 | 0.00 | 0.00 | 93 | 1019.2 |
| 20260509203109 | 8 | 172 | 0.0 | 0.0 | 0.00 | 0.00 | 0.00 | 93 | 1019.3 |
| 20260509203005 | 8 | 172 | 0.0 | 0.0 | 0.00 | 0.00 | 0.00 | 93 | 1019.2 |
| 20260509202907 | 8 | 172 | 0.0 | 0.0 | 0.00 | 0.00 | 0.00 | 93 | 1019.2 |
| 20260509202806 | 8 | 172 | 0.0 | 0.0 | 0.00 | 0.00 | 0.00 | 93 | 1019.2 |
| 20260509202706 | 8 | 172 | 0.0 | 0.0 | 0.00 | 0.00 | 0.00 | 93 | 1019.2 |
| 20260509202549 | 8 | 172 | 0.0 | 0.0 | 0.00 | 0.00 | 0.00 | 93 | 1019.5 |
| 20260509202505 | 8 | 172 | 0.0 | 0.0 | 0.00 | 0.00 | 0.00 | 92 | 1019.2 |
| 20260509202440 | 9 | 172 | 0.0 | 0.0 | 0.00 | 0.00 | 0.00 | 90 | 1019.1 |
| 20260509202432 | 8 | 172 | 0.0 | 0.0 | 0.00 | 0.00 | 0.00 | 92 | 1019.6 |
| 20260509202417 | 8 | 172 | 0.0 | 0.0 | 0.00 | 0.00 | 0.00 | 92 | 1019.3 |
| 20260509202401 | 8 | 172 | 0.0 | 0.0 | 0.00 | 0.00 | 0.00 | 92 | 1019.0 |
| 20260509202332 | 8 | 172 | 0.0 | 0.0 | 0.00 | 0.00 | 0.00 | 92 | 1019.1 |
| 20260509202320 | 8 | 172 | 0.0 | 0.0 | 0.00 | 0.00 | 0.00 | 91 | 1019.0 |
| 20260509202306 | 8 | 172 | 0.0 | 0.0 | 0.00 | 0.00 | 0.00 | 91 | 1019.2 |
| 20260509202029 | 9 | 172 | 0.0 | 0.0 | 0.00 | 0.00 | 0.00 | 91 | 1019.3 |
| 20260509201506 | 9 | 172 | 0.0 | 0.0 | 0.00 | 0.00 | 0.00 | 90 | 1019.2 |
| 20260509201406 | 9 | 172 | 0.0 | 0.0 | 0.00 | 0.00 | 0.00 | 90 | 1019.2 |
| 20260509201306 | 9 | 172 | 0.0 | 0.0 | 0.00 | 0.00 | 0.00 | 90 | 1019.1 |
| 20260509201206 | 9 | 172 | 0.0 | 0.0 | 0.00 | 0.00 | 0.00 | 90 | 1019.1 |
| 20260509201054 | 9 | 172 | 0.0 | 0.0 | 0.00 | 0.00 | 0.00 | 90 | 1019.4 |
| 20260509201042 | 9 | 172 | 0.0 | 0.0 | 0.00 | 0.00 | 0.00 | 90 | 1019.2 |
| 20260509201026 | 9 | 172 | 0.0 | 0.0 | 0.00 | 0.00 | 0.00 | 90 | 1019.2 |
| 20260509200748 | 9 | 172 | 0.0 | 0.0 | 0.00 | 0.00 | 0.00 | 90 | 1019.2 |
| 20260509200721 | 9 | 172 | 0.0 | 0.0 | 0.00 | 0.00 | 0.00 | 90 | 1019.2 |
| 20260509200406 | 10 | 172 | 0.0 | 0.0 | 0.00 | 0.00 | 0.00 | 89 | 1019.4 |
| 20260509200305 | 10 | 172 | 0.0 | 0.0 | 0.00 | 0.00 | 0.00 | 89 | 1019.3 |
| 20260509200205 | 10 | 172 | 0.0 | 0.0 | 0.00 | 0.00 | 0.00 | 89 | 1018.9 |
| 20260509200006 | 10 | 172 | 0.0 | 0.0 | 0.00 | 0.00 | 0.00 | 89 | 1019.2 |
| 20260509195905 | 10 | 172 | 0.0 | 0.0 | 0.00 | 0.00 | 0.00 | 89 | 1019.2 |
| 20260509195805 | 10 | 172 | 0.0 | 0.0 | 0.00 | 0.00 | 0.00 | 89 | 1019.2 |
| 20260509195736 | 10 | 171 | 0.0 | 0.0 | 0.00 | 0.00 | 0.00 | 87 | 1019.2 |
| 20260509195726 | 10 | 172 | 0.0 | 0.0 | 0.00 | 0.00 | 0.00 | 88 | 1019.2 |
| 20260509195659 | 10 | 172 | 0.0 | 0.0 | 0.00 | 0.00 | 0.00 | 88 | 1019.2 |
| 20260509195647 | 10 | 172 | 0.0 | 0.0 | 0.00 | 0.00 | 0.00 | 88 | 1019.4 |
| 20260509195422 | 10 | 172 | 0.0 | 0.0 | 0.00 | 0.00 | 0.00 | 88 | 1019.1 |
| 20260509195407 | 10 | 171 | 0.0 | 0.0 | 0.00 | 0.00 | 0.00 | 88 | 1019.2 |
| 20260509195351 | 10 | 171 | 0.0 | 0.0 | 0.00 | 0.00 | 0.00 | 88 | 1019.2 |
| 20260509195323 | 10 | 171 | 0.0 | 0.0 | 0.00 | 0.00 | 0.00 | 88 | 1019.3 |
| 20260509195311 | 10 | 171 | 0.0 | 0.0 | 0.00 | 0.00 | 0.00 | 88 | 1019.2 |
| 20260509195255 | 10 | 171 | 0.0 | 0.0 | 0.00 | 0.00 | 0.00 | 88 | 1019.3 |
| 20260509195240 | 10 | 171 | 0.0 | 0.0 | 0.00 | 0.00 | 0.00 | 87 | 1019.2 |
| 20260509195224 | 10 | 171 | 0.0 | 0.0 | 0.00 | 0.00 | 0.00 | 87 | 1019.4 |
| 20260509195207 | 10 | 171 | 0.0 | 0.0 | 0.00 | 0.00 | 0.00 | 87 | 1019.2 |
| 20260509194720 | 10 | 169 | 0.0 | 0.0 | 0.00 | 0.00 | 0.00 | 87 | 1019.2 |
| 20260509194445 | 10 | 167 | 0.0 | 0.0 | 0.00 | 0.00 | 0.00 | 87 | 1019.4 |
| 20260509194417 | 10 | 167 | 0.0 | 0.0 | 0.00 | 0.00 | 0.00 | 87 | 1019.4 |
| 20260509194145 | 10 | 166 | 0.0 | 1.6 | 0.00 | 0.00 | 0.00 | 86 | 1019.1 |
| 20260509193635 | 10 | 162 | 0.0 | 1.6 | 0.00 | 0.00 | 0.00 | 86 | 1019.2 |
| 20260509193625 | 10 | 161 | 0.0 | 1.6 | 0.00 | 0.00 | 0.00 | 86 | 1019.3 |
| 20260509193340 | 10 | 159 | 0.0 | 1.6 | 0.00 | 0.00 | 0.00 | 86 | 1019.2 |
| 20260509193325 | 10 | 157 | 0.0 | 1.6 | 0.00 | 0.00 | 0.00 | 86 | 1019.3 |
| 20260509193049 | 10 | 160 | 0.0 | 0.0 | 0.00 | 0.00 | 0.00 | 86 | 1019.3 |
| 20260509193007 | 10 | 157 | 0.0 | 0.0 | 0.00 | 0.00 | 0.00 | 85 | 1019.1 |
| 20260509192905 | 10 | 157 | 0.0 | 0.0 | 0.00 | 0.00 | 0.00 | 85 | 1019.2 |
| 20260509192805 | 10 | 155 | 0.0 | 0.0 | 0.00 | 0.00 | 0.00 | 85 | 1019.3 |
| 20260509192706 | 10 | 163 | 0.0 | 1.6 | 0.00 | 0.00 | 0.00 | 85 | 1019.3 |
| 20260509192605 | 11 | 162 | 0.0 | 1.6 | 0.00 | 0.00 | 0.00 | 85 | 1019.3 |
| 20260509192551 | 11 | 160 | 0.0 | 1.6 | 0.00 | 0.00 | 0.00 | 85 | 1019.3 |
| 20260509192540 | 11 | 155 | 0.0 | 1.6 | 0.00 | 0.00 | 0.00 | 85 | 1019.0 |
| 20260509192526 | 11 | 149 | 0.0 | 1.6 | 0.00 | 0.00 | 0.00 | 84 | 1019.2 |
| 20260509192204 | 11 | 149 | 0.0 | 1.6 | 0.00 | 0.00 | 0.00 | 84 | 1019.3 |
| 20260509192049 | 11 | 147 | 0.0 | 1.6 | 0.00 | 0.00 | 0.00 | 84 | 1019.1 |
| 20260509192006 | 11 | 159 | 0.0 | 3.2 | 0.00 | 0.00 | 0.00 | 84 | 1019.2 |
| 20260509191905 | 11 | 158 | 0.0 | 3.2 | 0.00 | 0.00 | 0.00 | 84 | 1019.4 |
| 20260509191843 | 11 | 153 | 0.0 | 3.2 | 0.00 | 0.00 | 0.00 | 83 | 1019.3 |
| 20260509191836 | 11 | 140 | 0.0 | 3.2 | 0.00 | 0.00 | 0.00 | 84 | 1019.1 |
| 20260509191822 | 11 | 155 | 0.0 | 3.2 | 0.00 | 0.00 | 0.00 | 83 | 1019.4 |
| 20260509191806 | 11 | 155 | 0.0 | 3.2 | 0.00 | 0.00 | 0.00 | 83 | 1019.3 |
| 20260509191505 | 11 | 151 | 0.0 | 3.2 | 0.00 | 0.00 | 0.00 | 83 | 1019.3 |
| 20260509191447 | 11 | 157 | 0.0 | 3.2 | 0.00 | 0.00 | 0.00 | 83 | 1019.3 |
| 20260509191430 | 11 | 138 | 0.0 | 3.2 | 0.00 | 0.00 | 0.00 | 83 | 1019.3 |
| 20260509191152 | 11 | 72 | 1.6 | 3.2 | 0.00 | 0.00 | 0.00 | 83 | 1019.2 |
| 20260509191139 | 11 | 78 | 1.6 | 3.2 | 0.00 | 0.00 | 0.00 | 83 | 1019.2 |
| 20260509191126 | 11 | 137 | 0.0 | 3.2 | 0.00 | 0.00 | 0.00 | 83 | 1019.4 |
| 20260509190805 | 11 | 147 | 0.0 | 3.2 | 0.00 | 0.00 | 0.00 | 82 | 1019.3 |
| 20260509190705 | 11 | 124 | 0.0 | 3.2 | 0.00 | 0.00 | 0.00 | 82 | 1019.4 |
| 20260509190606 | 11 | 90 | 1.6 | 3.2 | 0.00 | 0.00 | 0.00 | 82 | 1019.2 |
| 20260509190554 | 11 | 84 | 1.6 | 3.2 | 0.00 | 0.00 | 0.00 | 82 | 1019.2 |
| 20260509190543 | 11 | 108 | 1.6 | 4.8 | 0.00 | 0.00 | 0.00 | 83 | 1019.3 |
| 20260509190528 | 11 | 106 | 1.6 | 4.8 | 0.00 | 0.00 | 0.00 | 83 | 1019.4 |
| 20260509190205 | 11 | 122 | 0.0 | 6.4 | 0.00 | 0.00 | 0.00 | 83 | 1019.4 |
| 20260509190104 | 11 | 119 | 0.0 | 6.4 | 0.00 | 0.00 | 0.00 | 82 | 1019.4 |
| 20260509190006 | 11 | 102 | 0.0 | 6.4 | 0.00 | 0.00 | 0.00 | 82 | 1019.3 |
| 20260509185906 | 11 | 76 | 0.0 | 6.4 | 0.00 | 0.00 | 0.00 | 82 | 1019.2 |
| 20260509185806 | 11 | 59 | 1.6 | 6.4 | 0.00 | 0.00 | 0.00 | 82 | 1019.0 |
| 20260509185704 | 11 | 83 | 0.0 | 6.4 | 0.00 | 0.00 | 0.00 | 82 | 1019.4 |
| 20260509185606 | 11 | 68 | 1.6 | 6.4 | 0.00 | 0.00 | 0.00 | 83 | 1019.1 |
| 20260509185550 | 11 | 59 | 1.6 | 6.4 | 0.00 | 0.00 | 0.00 | 83 | 1019.1 |
| 20260509185541 | 11 | 54 | 3.2 | 4.8 | 0.00 | 0.00 | 0.00 | 83 | 1019.1 |
| 20260509185533 | 11 | 108 | 0.0 | 6.4 | 0.00 | 0.00 | 0.00 | 83 | 1019.2 |
| 20260509185517 | 11 | 68 | 4.8 | 6.4 | 0.00 | 0.00 | 0.00 | 82 | 1019.3 |
| 20260509185501 | 11 | 63 | 1.6 | 6.4 | 0.00 | 0.00 | 0.00 | 83 | 1019.3 |
| 20260509185445 | 11 | 117 | 0.0 | 4.8 | 0.00 | 0.00 | 0.00 | 83 | 1019.1 |
| 20260509185429 | 11 | 123 | 0.0 | 4.8 | 0.00 | 0.00 | 0.00 | 83 | 1019.2 |
| 20260509185417 | 11 | 130 | 0.0 | 4.8 | 0.00 | 0.00 | 0.00 | 83 | 1019.2 |
| 20260509185404 | 11 | 96 | 0.0 | 4.8 | 0.00 | 0.00 | 0.00 | 83 | 1019.4 |
| 20260509185348 | 11 | 85 | 0.0 | 4.8 | 0.00 | 0.00 | 0.00 | 83 | 1019.4 |
| 20260509185332 | 11 | 86 | 0.0 | 4.8 | 0.00 | 0.00 | 0.00 | 83 | 1019.4 |
| 20260509185057 | 11 | 86 | 1.6 | 4.8 | 0.00 | 0.00 | 0.00 | 83 | 1019.1 |
| 20260509184305 | 11 | 61 | 0.0 | 4.8 | 0.00 | 0.00 | 0.00 | 83 | 1019.3 |
| 20260509184209 | 11 | 69 | 0.0 | 4.8 | 0.00 | 0.00 | 0.00 | 83 | 1019.1 |
| 20260509184142 | 11 | 108 | 1.6 | 4.8 | 0.00 | 0.00 | 0.00 | 83 | 1019.1 |
| 20260509184129 | 11 | 105 | 0.0 | 4.8 | 0.00 | 0.00 | 0.00 | 83 | 1019.2 |
| 20260509183805 | 11 | 130 | 0.0 | 4.8 | 0.00 | 0.00 | 0.00 | 83 | 1019.1 |
| 20260509183705 | 11 | 128 | 0.0 | 4.8 | 0.00 | 0.00 | 0.00 | 83 | 1019.4 |
| 20260509183549 | 11 | 104 | 0.0 | 4.8 | 0.00 | 0.00 | 0.00 | 83 | 1019.2 |
| 20260509183507 | 11 | 87 | 0.0 | 4.8 | 0.00 | 0.00 | 0.00 | 83 | 1019.3 |
| 20260509183405 | 11 | 129 | 0.0 | 4.8 | 0.00 | 0.00 | 0.00 | 83 | 1019.2 |
| 20260509183306 | 11 | 97 | 0.0 | 4.8 | 0.00 | 0.00 | 0.00 | 83 | 1019.1 |
| 20260509183205 | 11 | 114 | 0.0 | 4.8 | 0.00 | 0.00 | 0.00 | 83 | 1019.1 |
| 20260509183105 | 11 | 100 | 1.6 | 4.8 | 0.00 | 0.00 | 0.00 | 83 | 1019.2 |
| 20260509183050 | 11 | 125 | 0.0 | 4.8 | 0.00 | 0.00 | 0.00 | 83 | 1019.2 |
| 20260509183006 | 11 | 134 | 0.0 | 4.8 | 0.00 | 0.00 | 0.00 | 83 | 1019.1 |
| 20260509182906 | 11 | 124 | 0.0 | 4.8 | 0.00 | 0.00 | 0.00 | 82 | 1019.2 |
| 20260509182806 | 11 | 75 | 0.0 | 4.8 | 0.00 | 0.00 | 0.00 | 82 | 1019.1 |
| 20260509182705 | 11 | 127 | 1.6 | 3.2 | 0.00 | 0.00 | 0.00 | 82 | 1019.0 |
| 20260509182605 | 11 | 121 | 0.0 | 3.2 | 0.00 | 0.00 | 0.00 | 82 | 1019.1 |
| 20260509182550 | 11 | 115 | 0.0 | 3.2 | 0.00 | 0.00 | 0.00 | 82 | 1019.1 |
| 20260509182505 | 11 | 49 | 3.2 | 3.2 | 0.00 | 0.00 | 0.00 | 82 | 1019.1 |
| 20260509182405 | 11 | 146 | 0.0 | 1.6 | 0.00 | 0.00 | 0.00 | 82 | 1019.2 |
| 20260509182307 | 11 | 145 | 0.0 | 1.6 | 0.00 | 0.00 | 0.00 | 82 | 1019.1 |
| 20260509182205 | 11 | 134 | 0.0 | 3.2 | 0.00 | 0.00 | 0.00 | 82 | 1018.9 |
| 20260509182053 | 11 | 147 | 0.0 | 3.2 | 0.00 | 0.00 | 0.00 | 82 | 1019.1 |
| 20260509182041 | 11 | 131 | 0.0 | 3.2 | 0.00 | 0.00 | 0.00 | 82 | 1018.8 |
| 20260509182025 | 11 | 133 | 0.0 | 3.2 | 0.00 | 0.00 | 0.00 | 82 | 1019.3 |
| 20260509181705 | 11 | 151 | 0.0 | 3.2 | 0.00 | 0.00 | 0.00 | 82 | 1019.1 |
| 20260509181605 | 11 | 134 | 0.0 | 3.2 | 0.00 | 0.00 | 0.00 | 82 | 1019.1 |
| 20260509181549 | 11 | 133 | 0.0 | 3.2 | 0.00 | 0.00 | 0.00 | 82 | 1019.1 |
| 20260509181506 | 11 | 151 | 0.0 | 3.2 | 0.00 | 0.00 | 0.00 | 82 | 1019.1 |
| 20260509181405 | 11 | 132 | 0.0 | 3.2 | 0.00 | 0.00 | 0.00 | 81 | 1018.9 |
| 20260509181341 | 11 | 120 | 0.0 | 3.2 | 0.00 | 0.00 | 0.00 | 81 | 1019.1 |
| 20260509181325 | 11 | 128 | 0.0 | 1.6 | 0.00 | 0.00 | 0.00 | 81 | 1019.1 |
| 20260509181050 | 11 | 129 | 0.0 | 1.6 | 0.00 | 0.00 | 0.00 | 81 | 1018.9 |
| 20260509181006 | 11 | 141 | 0.0 | 1.6 | 0.00 | 0.00 | 0.00 | 81 | 1019.1 |
| 20260509180904 | 11 | 129 | 0.0 | 1.6 | 0.00 | 0.00 | 0.00 | 81 | 1019.2 |
| 20260509180842 | 11 | 120 | 0.0 | 1.6 | 0.00 | 0.00 | 0.00 | 81 | 1019.0 |
| 20260509180826 | 11 | 149 | 0.0 | 1.6 | 0.00 | 0.00 | 0.00 | 81 | 1019.1 |
| 20260509180549 | 11 | 144 | 0.0 | 1.6 | 0.00 | 0.00 | 0.00 | 81 | 1019.0 |
| 20260509180541 | 11 | 90 | 0.0 | 4.8 | 0.00 | 0.00 | 0.00 | 80 | 1019.0 |
| 20260509180533 | 11 | 112 | 0.0 | 1.6 | 0.00 | 0.00 | 0.00 | 81 | 1019.0 |
| 20260509180517 | 11 | 136 | 0.0 | 1.6 | 0.00 | 0.00 | 0.00 | 81 | 1019.0 |
| 20260509180502 | 11 | 163 | 0.0 | 1.6 | 0.00 | 0.00 | 0.00 | 81 | 1018.8 |
| 20260509180212 | 11 | 146 | 0.0 | 1.6 | 0.00 | 0.00 | 0.00 | 80 | 1019.1 |
| 20260509180159 | 11 | 146 | 0.0 | 1.6 | 0.00 | 0.00 | 0.00 | 80 | 1019.1 |
| 20260509180143 | 11 | 144 | 0.0 | 1.6 | 0.00 | 0.00 | 0.00 | 80 | 1019.2 |
| 20260509180127 | 11 | 157 | 0.0 | 4.8 | 0.00 | 0.00 | 0.00 | 80 | 1019.1 |
| 20260509175851 | 11 | 67 | 1.6 | 4.8 | 0.00 | 0.00 | 0.00 | 80 | 1019.0 |
| 20260509175625 | 11 | 161 | 0.0 | 4.8 | 0.00 | 0.00 | 0.00 | 80 | 1019.1 |
| 20260509175345 | 11 | 158 | 0.0 | 4.8 | 0.00 | 0.00 | 0.00 | 80 | 1019.1 |
| 20260509175328 | 11 | 136 | 0.0 | 4.8 | 0.00 | 0.00 | 0.00 | 80 | 1019.1 |
| 20260509175049 | 12 | 142 | 0.0 | 4.8 | 0.00 | 0.00 | 0.00 | 80 | 1019.1 |
| 20260509175005 | 12 | 121 | 0.0 | 4.8 | 0.00 | 0.00 | 0.00 | 80 | 1019.2 |
| 20260509174906 | 11 | 48 | 4.8 | 4.8 | 0.00 | 0.00 | 0.00 | 79 | 1019.1 |
| 20260509174840 | 12 | 138 | 0.0 | 3.2 | 0.00 | 0.00 | 0.00 | 79 | 1019.1 |
| 20260509174832 | 11 | 154 | 0.0 | 3.2 | 0.00 | 0.00 | 0.00 | 79 | 1019.3 |
| 20260509174816 | 11 | 131 | 0.0 | 3.2 | 0.00 | 0.00 | 0.00 | 79 | 1019.1 |
| 20260509174759 | 12 | 138 | 0.0 | 3.2 | 0.00 | 0.00 | 0.00 | 79 | 1019.1 |
| 20260509174441 | 12 | 105 | 0.0 | 3.2 | 0.00 | 0.00 | 0.00 | 79 | 1019.1 |
| 20260509174341 | 12 | 131 | 0.0 | 3.2 | 0.00 | 0.00 | 0.00 | 80 | 1018.9 |
| 20260509174243 | 12 | 161 | 0.0 | 3.2 | 0.00 | 0.00 | 0.00 | 79 | 1019.0 |
| 20260509174229 | 12 | 164 | 0.0 | 1.6 | 0.00 | 0.00 | 0.00 | 79 | 1019.0 |
| 20260509174218 | 12 | 160 | 0.0 | 3.2 | 0.00 | 0.00 | 0.00 | 79 | 1019.2 |
| 20260509174153 | 12 | 145 | 0.0 | 3.2 | 0.00 | 0.00 | 0.00 | 79 | 1019.0 |
| 20260509174138 | 12 | 158 | 0.0 | 3.2 | 0.00 | 0.00 | 0.00 | 79 | 1019.0 |
| 20260509174122 | 12 | 99 | 1.6 | 3.2 | 0.00 | 0.00 | 0.00 | 79 | 1019.0 |
| 20260509174106 | 12 | 160 | 0.0 | 1.6 | 0.00 | 0.00 | 0.00 | 79 | 1019.1 |
| 20260509174051 | 12 | 164 | 0.0 | 1.6 | 0.00 | 0.00 | 0.00 | 79 | 1019.1 |
| 20260509173603 | 12 | 163 | 0.0 | 1.6 | 0.00 | 0.00 | 0.00 | 79 | 1018.9 |
| 20260509173241 | 12 | 120 | 0.0 | 1.6 | 0.00 | 0.00 | 0.00 | 79 | 1019.0 |
| 20260509173142 | 12 | 146 | 0.0 | 1.6 | 0.00 | 0.00 | 0.00 | 79 | 1019.0 |
| 20260509173043 | 12 | 168 | 0.0 | 1.6 | 0.00 | 0.00 | 0.00 | 79 | 1019.0 |
| 20260509172940 | 12 | 177 | 0.0 | 1.6 | 0.00 | 0.00 | 0.00 | 78 | 1019.0 |
| 20260509172916 | 12 | 168 | 0.0 | 0.0 | 0.00 | 0.00 | 0.00 | 79 | 1019.1 |
| 20260509172907 | 12 | 178 | 0.0 | 1.6 | 0.00 | 0.00 | 0.00 | 78 | 1019.1 |
| 20260509172851 | 12 | 175 | 0.0 | 1.6 | 0.00 | 0.00 | 0.00 | 78 | 1019.2 |
| 20260509172835 | 12 | 171 | 0.0 | 1.6 | 0.00 | 0.00 | 0.00 | 78 | 1019.1 |
| 20260509172602 | 12 | 154 | 0.0 | 1.6 | 0.00 | 0.00 | 0.00 | 78 | 1018.8 |
| 20260509172546 | 12 | 154 | 0.0 | 1.6 | 0.00 | 0.00 | 0.00 | 78 | 1019.2 |
| 20260509172530 | 12 | 135 | 0.0 | 1.6 | 0.00 | 0.00 | 0.00 | 78 | 1018.9 |
| 20260509172514 | 12 | 156 | 0.0 | 1.6 | 0.00 | 0.00 | 0.00 | 78 | 1019.2 |
| 20260509172458 | 12 | 142 | 0.0 | 1.6 | 0.00 | 0.00 | 0.00 | 77 | 1019.0 |
| 20260509172433 | 12 | 141 | 0.0 | 1.6 | 0.00 | 0.00 | 0.00 | 78 | 1019.2 |